Darstellungsparameter: Aktuell verwendete Einstellungen:
Skalierung der Graphiken ... ?
xyx+y,   Skalierungsfaktor:      Skalierung: Modus: x, Faktor: 1
Darstellungszeitraum ... ?
Vom - - bis: - -   Zeitraum: 20.05.2020 - 26.05.2020
Min/Max/Avg-Anzeige ... ?
Zeige MMA aktuell
Zeige MMA Monat
Zeige MMA alles
Zeige --A aktuell
Zeige --A Monat
Zeige --A alles
Keine MMA-Anzeige
MMA:
Keine MMA-Graphiken
MMA-Basis: 20.05.2020 - 26.05.2020
Quicknavigation für Darstellung... ?
Tage:      1T, 2T, 3T, 5T -1T -2T -3T -5T +1T +2T +3T +5T
Wochen: 1W, 2W, 3W -1W -2W -3W +1W +2W +3W
Monate: 1M, 3M, 6M -1M -3M -6M +1M +3M +6M
Jahre:    1J, 3J, 5J, 10J -1J -3J -5J -10J +1J +3J +5J +10J
Nutze für die Darstellung ... ?
Originaldaten oder Mittelwerte auf ...
Stundenbasis Tagesbasis Wochenbasis
Monatsbasis Jahresbasis      Datenbasis: Original-Daten
Darstellen als:
Statistik (Auto) Statistik J:M      Darstellung:
Zur Graphik,    zurück zur Übersicht aller Sensoren.
 
Tabellarische Datenbersicht: ?
 
Sensor: Nr:Datum:Temp:Feuchte:Taupunkt:
Aussen-T/F 1 20-05-2020 00:00:00 15.1 C 81 % 11.87 C
2 20-05-2020 00:05:00 15.1 C 81 % 11.87 C
3 20-05-2020 00:10:00 15.1 C 81 % 11.87 C
4 20-05-2020 00:15:00 15.1 C 81 % 11.87 C
5 20-05-2020 00:20:00 15.1 C 81 % 11.87 C
6 20-05-2020 00:25:00 15.1 C 81 % 11.87 C
7 20-05-2020 00:30:00 15.1 C 81 % 11.87 C
8 20-05-2020 00:35:00 14.9 C 81 % 11.67 C
9 20-05-2020 00:40:00 14.8 C 80 % 11.39 C
10 20-05-2020 00:45:00 14.7 C 81 % 11.48 C
11 20-05-2020 00:50:00 14.5 C 81 % 11.28 C
12 20-05-2020 00:55:00 14.3 C 81 % 11.09 C
13 20-05-2020 01:00:00 14.2 C 82 % 11.17 C
14 20-05-2020 01:05:00 14.1 C 83 % 11.26 C
15 20-05-2020 01:10:00 13.9 C 83 % 11.06 C
16 20-05-2020 01:15:00 13.9 C 83 % 11.06 C
17 20-05-2020 01:20:00 13.8 C 83 % 10.97 C
18 20-05-2020 01:25:00 13.7 C 84 % 11.05 C
19 20-05-2020 01:30:00 13.6 C 84 % 10.95 C
20 20-05-2020 01:35:00 13.5 C 84 % 10.85 C
21 20-05-2020 01:40:00 13.4 C 85 % 10.93 C
22 20-05-2020 01:45:00 13.3 C 85 % 10.83 C
23 20-05-2020 01:50:00 13.3 C 85 % 10.83 C
24 20-05-2020 01:55:00 13.2 C 85 % 10.74 C
25 20-05-2020 02:00:00 13.1 C 85 % 10.64 C
Sensor: Nr:Datum:Temp:Feuchte:Taupunkt:
Aussen-T/F 26 20-05-2020 02:05:00 13 C 86 % 10.72 C
27 20-05-2020 02:10:00 12.9 C 86 % 10.62 C
28 20-05-2020 02:15:00 12.9 C 87 % 10.79 C
29 20-05-2020 02:20:00 12.8 C 87 % 10.69 C
30 20-05-2020 02:25:00 12.8 C 87 % 10.69 C
31 20-05-2020 02:30:00 12.8 C 87 % 10.69 C
32 20-05-2020 02:35:00 12.8 C 87 % 10.69 C
33 20-05-2020 02:40:00 12.8 C 87 % 10.69 C
34 20-05-2020 02:45:00 12.7 C 87 % 10.59 C
35 20-05-2020 02:50:00 12.7 C 87 % 10.59 C
36 20-05-2020 02:55:00 12.6 C 88 % 10.67 C
37 20-05-2020 03:00:00 12.6 C 88 % 10.67 C
38 20-05-2020 03:05:00 12.5 C 88 % 10.57 C
39 20-05-2020 03:10:00 12.4 C 88 % 10.47 C
40 20-05-2020 03:15:00 12.3 C 88 % 10.37 C
41 20-05-2020 03:20:00 12.3 C 88 % 10.37 C
42 20-05-2020 03:25:00 12.2 C 89 % 10.44 C
43 20-05-2020 03:30:00 12.2 C 89 % 10.44 C
44 20-05-2020 03:35:00 12.2 C 89 % 10.44 C
45 20-05-2020 03:40:00 12.1 C 89 % 10.34 C
46 20-05-2020 03:45:00 12.1 C 89 % 10.34 C
47 20-05-2020 03:50:00 12.1 C 90 % 10.51 C
48 20-05-2020 03:55:00 12.1 C 90 % 10.51 C
49 20-05-2020 04:00:00 12.1 C 90 % 10.51 C
50 20-05-2020 04:05:00 12.1 C 90 % 10.51 C
Sensor: Nr:Datum:Temp:Feuchte:Taupunkt:
Aussen-T/F 51 20-05-2020 04:10:00 12.1 C 90 % 10.51 C
52 20-05-2020 04:15:00 12 C 90 % 10.41 C
53 20-05-2020 04:20:00 11.9 C 90 % 10.31 C
54 20-05-2020 04:25:00 11.8 C 90 % 10.21 C
55 20-05-2020 04:30:00 11.8 C 91 % 10.38 C
56 20-05-2020 04:35:00 11.9 C 91 % 10.48 C
57 20-05-2020 04:40:00 11.9 C 91 % 10.48 C
58 20-05-2020 04:45:00 11.9 C 91 % 10.48 C
59 20-05-2020 04:50:00 11.8 C 90 % 10.21 C
60 20-05-2020 04:55:00 11.7 C 90 % 10.12 C
61 20-05-2020 05:00:00 11.6 C 90 % 10.02 C
62 20-05-2020 05:05:00 11.4 C 90 % 9.82 C
63 20-05-2020 05:10:00 11.3 C 91 % 9.89 C
64 20-05-2020 05:15:00 11.3 C 91 % 9.89 C
65 20-05-2020 05:20:00 11.3 C 91 % 9.89 C
66 20-05-2020 05:25:00 11.2 C 91 % 9.79 C
67 20-05-2020 05:30:00 11.2 C 91 % 9.79 C
68 20-05-2020 05:35:00 11.2 C 92 % 9.95 C
69 20-05-2020 05:40:00 11.2 C 92 % 9.95 C
70 20-05-2020 05:45:00 11.3 C 92 % 10.05 C
71 20-05-2020 05:50:00 11.3 C 92 % 10.05 C
72 20-05-2020 05:55:00 11.3 C 92 % 10.05 C
73 20-05-2020 06:00:00 11.3 C 92 % 10.05 C
74 20-05-2020 06:05:00 11.4 C 92 % 10.15 C
75 20-05-2020 06:10:00 11.4 C 92 % 10.15 C
Sensor: Nr:Datum:Temp:Feuchte:Taupunkt:
Aussen-T/F 76 20-05-2020 06:15:00 11.4 C 92 % 10.15 C
77 20-05-2020 06:20:00 11.4 C 92 % 10.15 C
78 20-05-2020 06:25:00 11.4 C 92 % 10.15 C
79 20-05-2020 06:30:00 11.4 C 92 % 10.15 C
80 20-05-2020 06:35:00 11.4 C 92 % 10.15 C
81 20-05-2020 06:40:00 11.5 C 93 % 10.41 C
82 20-05-2020 06:45:00 11.6 C 93 % 10.51 C
83 20-05-2020 06:50:00 11.6 C 92 % 10.35 C
84 20-05-2020 06:55:00 11.6 C 92 % 10.35 C
85 20-05-2020 07:00:00 11.6 C 92 % 10.35 C
86 20-05-2020 07:05:00 11.6 C 92 % 10.35 C
87 20-05-2020 07:10:00 11.6 C 92 % 10.35 C
88 20-05-2020 07:15:00 11.7 C 93 % 10.61 C
89 20-05-2020 07:20:00 11.7 C 93 % 10.61 C
90 20-05-2020 07:25:00 11.8 C 93 % 10.71 C
91 20-05-2020 07:30:00 11.8 C 93 % 10.71 C
92 20-05-2020 07:35:00 12 C 93 % 10.9 C
93 20-05-2020 07:40:00 12.2 C 93 % 11.1 C
94 20-05-2020 07:45:00 12.3 C 94 % 11.36 C
95 20-05-2020 07:50:00 12.6 C 94 % 11.66 C
96 20-05-2020 07:55:00 12.8 C 93 % 11.7 C
97 20-05-2020 08:00:00 13.1 C 93 % 11.99 C
98 20-05-2020 08:05:00 13.2 C 93 % 12.09 C
99 20-05-2020 08:10:00 13.4 C 93 % 12.29 C
100 20-05-2020 08:15:00 13.8 C 91 % 12.36 C
Sensor: Nr:Datum:Temp:Feuchte:Taupunkt:
Aussen-T/F 101 20-05-2020 08:20:00 14.3 C 89 % 12.51 C
102 20-05-2020 08:25:00 14.7 C 87 % 12.56 C
103 20-05-2020 08:30:00 15.2 C 85 % 12.7 C
104 20-05-2020 08:35:00 15.6 C 84 % 12.91 C
105 20-05-2020 08:40:00 15.8 C 83 % 12.92 C
106 20-05-2020 08:45:00 15.9 C 82 % 12.83 C
107 20-05-2020 08:50:00 16.1 C 81 % 12.84 C
108 20-05-2020 08:55:00 16.3 C 81 % 13.04 C
109 20-05-2020 09:00:00 16.4 C 80 % 12.94 C
110 20-05-2020 09:05:00 16.5 C 80 % 13.04 C
111 20-05-2020 09:10:00 16.6 C 79 % 12.95 C
112 20-05-2020 09:15:00 16.7 C 79 % 13.04 C
113 20-05-2020 09:20:00 16.8 C 79 % 13.14 C
114 20-05-2020 09:25:00 16.9 C 78 % 13.04 C
115 20-05-2020 09:30:00 17.1 C 78 % 13.24 C
116 20-05-2020 09:35:00 17.1 C 77 % 13.04 C
117 20-05-2020 09:40:00 17.2 C 77 % 13.14 C
118 20-05-2020 09:45:00 17.3 C 77 % 13.23 C
119 20-05-2020 09:50:00 17.4 C 76 % 13.13 C
120 20-05-2020 09:55:00 17.6 C 75 % 13.12 C
121 20-05-2020 10:00:00 17.7 C 75 % 13.22 C
122 20-05-2020 10:05:00 17.8 C 74 % 13.11 C
123 20-05-2020 10:10:00 18 C 74 % 13.3 C
124 20-05-2020 10:15:00 18.3 C 74 % 13.59 C
125 20-05-2020 10:20:00 18.5 C 72 % 13.36 C
Sensor: Nr:Datum:Temp:Feuchte:Taupunkt:
Aussen-T/F 126 20-05-2020 10:25:00 18.6 C 71 % 13.24 C
127 20-05-2020 10:30:00 18.8 C 71 % 13.43 C
128 20-05-2020 10:35:00 18.9 C 71 % 13.53 C
129 20-05-2020 10:40:00 19 C 71 % 13.63 C
130 20-05-2020 10:45:00 19.2 C 71 % 13.82 C
131 20-05-2020 10:50:00 19.2 C 70 % 13.6 C
132 20-05-2020 10:55:00 19.3 C 70 % 13.69 C
133 20-05-2020 11:00:00 19.4 C 69 % 13.57 C
134 20-05-2020 11:05:00 19.4 C 68 % 13.34 C
135 20-05-2020 11:10:00 19.6 C 68 % 13.54 C
136 20-05-2020 11:15:00 19.7 C 68 % 13.63 C
137 20-05-2020 11:20:00 19.7 C 68 % 13.63 C
138 20-05-2020 11:25:00 19.7 C 67 % 13.4 C
139 20-05-2020 11:30:00 19.7 C 68 % 13.63 C
140 20-05-2020 11:35:00 19.6 C 68 % 13.54 C
141 20-05-2020 11:40:00 19.6 C 68 % 13.54 C
142 20-05-2020 11:45:00 19.6 C 68 % 13.54 C
143 20-05-2020 11:50:00 19.6 C 69 % 13.76 C
144 20-05-2020 11:55:00 19.7 C 68 % 13.63 C
145 20-05-2020 12:00:00 19.8 C 67 % 13.5 C
146 20-05-2020 12:05:00 19.9 C 67 % 13.59 C
147 20-05-2020 12:10:00 20.1 C 66 % 13.55 C
148 20-05-2020 12:15:00 20.1 C 67 % 13.78 C
149 20-05-2020 12:20:00 20.2 C 67 % 13.88 C
150 20-05-2020 12:25:00 20.3 C 65 % 13.51 C
Sensor: Nr:Datum:Temp:Feuchte:Taupunkt:
Aussen-T/F 151 20-05-2020 12:30:00 20.3 C 66 % 13.74 C
152 20-05-2020 12:35:00 20.2 C 66 % 13.65 C
153 20-05-2020 12:40:00 20.3 C 65 % 13.51 C
154 20-05-2020 12:45:00 20.5 C 65 % 13.7 C
155 20-05-2020 12:50:00 20.6 C 64 % 13.55 C
156 20-05-2020 12:55:00 20.7 C 64 % 13.65 C
157 20-05-2020 13:00:00 20.8 C 64 % 13.74 C
158 20-05-2020 13:05:00 21.1 C 64 % 14.03 C
159 20-05-2020 13:10:00 21 C 62 % 13.44 C
160 20-05-2020 13:15:00 20.9 C 63 % 13.6 C
161 20-05-2020 13:20:00 21.1 C 62 % 13.54 C
162 20-05-2020 13:25:00 21.2 C 62 % 13.63 C
163 20-05-2020 13:30:00 21.3 C 62 % 13.73 C
164 20-05-2020 13:35:00 21.3 C 61 % 13.48 C
165 20-05-2020 13:40:00 21.2 C 61 % 13.38 C
166 20-05-2020 13:45:00 21.2 C 60 % 13.13 C
167 20-05-2020 13:50:00 21.3 C 61 % 13.48 C
168 20-05-2020 13:55:00 21.4 C 60 % 13.32 C
169 20-05-2020 14:00:00 21.3 C 61 % 13.48 C
170 20-05-2020 14:05:00 21.4 C 61 % 13.57 C
171 20-05-2020 14:10:00 21.4 C 60 % 13.32 C
172 20-05-2020 14:15:00 21.6 C 60 % 13.51 C
173 20-05-2020 14:20:00 21.7 C 59 % 13.34 C
174 20-05-2020 14:25:00 21.7 C 60 % 13.6 C
175 20-05-2020 14:30:00 21.8 C 60 % 13.69 C
Sensor: Nr:Datum:Temp:Feuchte:Taupunkt:
Aussen-T/F 176 20-05-2020 14:35:00 22.1 C 59 % 13.72 C
177 20-05-2020 14:40:00 22.3 C 59 % 13.9 C
178 20-05-2020 14:45:00 22.6 C 58 % 13.92 C
179 20-05-2020 14:50:00 22.5 C 57 % 13.56 C
180 20-05-2020 14:55:00 22.3 C 58 % 13.64 C
181 20-05-2020 15:00:00 22.3 C 60 % 14.16 C
182 20-05-2020 15:05:00 22.4 C 58 % 13.73 C
183 20-05-2020 15:10:00 22.5 C 58 % 13.83 C
184 20-05-2020 15:15:00 22.6 C 57 % 13.65 C
185 20-05-2020 15:20:00 22.8 C 56 % 13.57 C
186 20-05-2020 15:25:00 22.9 C 57 % 13.93 C
187 20-05-2020 15:30:00 23.3 C 56 % 14.03 C
188 20-05-2020 15:35:00 23.7 C 53 % 13.56 C
189 20-05-2020 15:40:00 23.8 C 52 % 13.36 C
190 20-05-2020 15:45:00 23.9 C 52 % 13.45 C
191 20-05-2020 15:50:00 24.2 C 52 % 13.73 C
192 20-05-2020 15:55:00 24.3 C 52 % 13.82 C
193 20-05-2020 16:00:00 24.4 C 51 % 13.61 C
194 20-05-2020 16:05:00 24.5 C 51 % 13.7 C
195 20-05-2020 16:10:00 24.6 C 51 % 13.79 C
196 20-05-2020 16:15:00 24.7 C 49 % 13.27 C
197 20-05-2020 16:20:00 24.4 C 49 % 13 C
198 20-05-2020 16:25:00 24.1 C 50 % 13.03 C
199 20-05-2020 16:30:00 23.7 C 52 % 13.26 C
200 20-05-2020 16:35:00 23.8 C 52 % 13.36 C
Sensor: Nr:Datum:Temp:Feuchte:Taupunkt:
Aussen-T/F 201 20-05-2020 16:40:00 24.3 C 50 % 13.22 C
202 20-05-2020 16:45:00 24.2 C 50 % 13.12 C
203 20-05-2020 16:50:00 24.1 C 50 % 13.03 C
204 20-05-2020 16:55:00 24.2 C 50 % 13.12 C
205 20-05-2020 17:00:00 24.4 C 50 % 13.31 C
206 20-05-2020 17:05:00 24.8 C 49 % 13.36 C
207 20-05-2020 17:10:00 25.1 C 49 % 13.64 C
208 20-05-2020 17:15:00 24.9 C 48 % 13.14 C
209 20-05-2020 17:20:00 24.4 C 50 % 13.31 C
210 20-05-2020 17:25:00 24.3 C 51 % 13.52 C
211 20-05-2020 17:30:00 24.2 C 50 % 13.12 C
212 20-05-2020 17:35:00 24.4 C 49 % 13 C
213 20-05-2020 17:40:00 24.6 C 48 % 12.87 C
214 20-05-2020 17:45:00 24.4 C 49 % 13 C
215 20-05-2020 17:50:00 24.5 C 50 % 13.4 C
216 20-05-2020 17:55:00 24.3 C 48 % 12.59 C
217 20-05-2020 18:00:00 24.2 C 48 % 12.5 C
218 20-05-2020 18:05:00 24.3 C 50 % 13.22 C
219 20-05-2020 18:10:00 24.6 C 48 % 12.87 C
220 20-05-2020 18:15:00 24.4 C 49 % 13 C
221 20-05-2020 18:20:00 24.4 C 49 % 13 C
222 20-05-2020 18:25:00 24.5 C 49 % 13.09 C
223 20-05-2020 18:30:00 24.6 C 49 % 13.18 C
224 20-05-2020 18:35:00 24.6 C 48 % 12.87 C
225 20-05-2020 18:40:00 24.6 C 48 % 12.87 C
Sensor: Nr:Datum:Temp:Feuchte:Taupunkt:
Aussen-T/F 226 20-05-2020 18:45:00 24.8 C 47 % 12.73 C
227 20-05-2020 18:50:00 24.8 C 48 % 13.05 C
228 20-05-2020 18:55:00 24.4 C 48 % 12.68 C
229 20-05-2020 19:00:00 24.1 C 49 % 12.72 C
230 20-05-2020 19:05:00 24.2 C 50 % 13.12 C
231 20-05-2020 19:10:00 24.1 C 50 % 13.03 C
232 20-05-2020 19:15:00 24 C 50 % 12.94 C
233 20-05-2020 19:20:00 23.8 C 50 % 12.76 C
234 20-05-2020 19:25:00 23.7 C 50 % 12.67 C
235 20-05-2020 19:30:00 23.5 C 51 % 12.78 C
236 20-05-2020 19:35:00 23.3 C 51 % 12.6 C
237 20-05-2020 19:40:00 23.2 C 52 % 12.8 C
238 20-05-2020 19:45:00 23 C 53 % 12.91 C
239 20-05-2020 19:50:00 22.9 C 53 % 12.82 C
240 20-05-2020 19:55:00 22.8 C 53 % 12.73 C
241 20-05-2020 20:00:00 22.8 C 53 % 12.73 C
242 20-05-2020 20:05:00 22.7 C 53 % 12.63 C
243 20-05-2020 20:10:00 22.4 C 54 % 12.64 C
244 20-05-2020 20:15:00 22.3 C 55 % 12.83 C
245 20-05-2020 20:20:00 22.2 C 55 % 12.73 C
246 20-05-2020 20:25:00 22 C 55 % 12.55 C
247 20-05-2020 20:30:00 21.9 C 55 % 12.46 C
248 20-05-2020 20:35:00 21.7 C 56 % 12.54 C
249 20-05-2020 20:40:00 21.6 C 56 % 12.45 C
250 20-05-2020 20:45:00 21.4 C 58 % 12.8 C
Sensor: Nr:Datum:Temp:Feuchte:Taupunkt:
Aussen-T/F 251 20-05-2020 20:50:00 21.2 C 59 % 12.87 C
252 20-05-2020 20:55:00 21 C 60 % 12.94 C
253 20-05-2020 21:00:00 20.6 C 60 % 12.57 C
254 20-05-2020 21:05:00 20.3 C 61 % 12.54 C
255 20-05-2020 21:10:00 20.1 C 61 % 12.35 C
256 20-05-2020 21:15:00 20 C 61 % 12.26 C
257 20-05-2020 21:20:00 20 C 62 % 12.5 C
258 20-05-2020 21:25:00 19.9 C 64 % 12.89 C
259 20-05-2020 21:30:00 19.6 C 65 % 12.84 C
260 20-05-2020 21:35:00 19.1 C 66 % 12.6 C
261 20-05-2020 21:40:00 18.6 C 67 % 12.36 C
262 20-05-2020 21:45:00 18.2 C 68 % 12.2 C
263 20-05-2020 21:50:00 17.8 C 70 % 12.26 C
264 20-05-2020 21:55:00 17.5 C 71 % 12.19 C
265 20-05-2020 22:00:00 17.3 C 72 % 12.21 C
266 20-05-2020 22:05:00 17.1 C 72 % 12.02 C
267 20-05-2020 22:10:00 16.9 C 73 % 12.03 C
268 20-05-2020 22:15:00 16.8 C 74 % 12.14 C
269 20-05-2020 22:20:00 16.6 C 74 % 11.95 C
270 20-05-2020 22:25:00 16.4 C 75 % 11.96 C
271 20-05-2020 22:30:00 16.3 C 76 % 12.07 C
272 20-05-2020 22:35:00 16.2 C 76 % 11.97 C
273 20-05-2020 22:40:00 16.2 C 76 % 11.97 C
274 20-05-2020 22:45:00 16.1 C 76 % 11.87 C
275 20-05-2020 22:50:00 16.1 C 77 % 12.07 C
Sensor: Nr:Datum:Temp:Feuchte:Taupunkt:
Aussen-T/F 276 20-05-2020 22:55:00 15.9 C 77 % 11.88 C
277 20-05-2020 23:00:00 15.8 C 77 % 11.78 C
278 20-05-2020 23:05:00 15.8 C 77 % 11.78 C
279 20-05-2020 23:10:00 15.7 C 77 % 11.68 C
280 20-05-2020 23:15:00 15.6 C 78 % 11.78 C
281 20-05-2020 23:20:00 15.5 C 78 % 11.68 C
282 20-05-2020 23:25:00 15.4 C 78 % 11.59 C
283 20-05-2020 23:30:00 15.3 C 78 % 11.49 C
284 20-05-2020 23:35:00 15.2 C 79 % 11.59 C
285 20-05-2020 23:40:00 15.1 C 79 % 11.49 C
286 20-05-2020 23:45:00 15 C 79 % 11.39 C
287 20-05-2020 23:50:00 14.9 C 79 % 11.29 C
288 20-05-2020 23:55:00 14.9 C 80 % 11.48 C
289 21-05-2020 00:00:00 14.8 C 80 % 11.39 C
290 21-05-2020 00:05:00 14.7 C 80 % 11.29 C
291 21-05-2020 00:10:00 14.7 C 80 % 11.29 C
292 21-05-2020 00:15:00 14.6 C 80 % 11.19 C
293 21-05-2020 00:20:00 14.5 C 81 % 11.28 C
294 21-05-2020 00:25:00 14.4 C 80 % 11 C
295 21-05-2020 00:30:00 14.4 C 80 % 11 C
296 21-05-2020 00:35:00 14.4 C 80 % 11 C
297 21-05-2020 00:40:00 14.4 C 80 % 11 C
298 21-05-2020 00:45:00 14.5 C 80 % 11.09 C
299 21-05-2020 00:50:00 14.6 C 80 % 11.19 C
300 21-05-2020 00:55:00 14.6 C 79 % 11 C
Sensor: Nr:Datum:Temp:Feuchte:Taupunkt:
Aussen-T/F 301 21-05-2020 01:00:00 14.6 C 79 % 11 C
302 21-05-2020 01:05:00 14.6 C 79 % 11 C
303 21-05-2020 01:10:00 14.7 C 79 % 11.1 C
304 21-05-2020 01:15:00 14.9 C 79 % 11.29 C
305 21-05-2020 01:20:00 14.9 C 78 % 11.1 C
306 21-05-2020 01:25:00 15 C 78 % 11.2 C
307 21-05-2020 01:30:00 14.9 C 78 % 11.1 C
308 21-05-2020 01:35:00 14.8 C 78 % 11 C
309 21-05-2020 01:40:00 14.5 C 79 % 10.91 C
310 21-05-2020 01:45:00 14.3 C 80 % 10.9 C
311 21-05-2020 01:50:00 14.1 C 80 % 10.71 C
312 21-05-2020 01:55:00 13.9 C 81 % 10.7 C
313 21-05-2020 02:00:00 13.7 C 82 % 10.69 C
314 21-05-2020 02:05:00 13.6 C 82 % 10.59 C
315 21-05-2020 02:10:00 13.4 C 83 % 10.57 C
316 21-05-2020 02:15:00 13.3 C 83 % 10.48 C
317 21-05-2020 02:20:00 13.3 C 84 % 10.66 C
318 21-05-2020 02:25:00 13.2 C 84 % 10.56 C
319 21-05-2020 02:30:00 13.1 C 84 % 10.46 C
320 21-05-2020 02:35:00 13 C 85 % 10.54 C
321 21-05-2020 02:40:00 12.9 C 85 % 10.44 C
322 21-05-2020 02:45:00 12.9 C 85 % 10.44 C
323 21-05-2020 02:50:00 12.8 C 86 % 10.52 C
324 21-05-2020 02:55:00 12.8 C 86 % 10.52 C
325 21-05-2020 03:00:00 12.7 C 86 % 10.42 C
Sensor: Nr:Datum:Temp:Feuchte:Taupunkt:
Aussen-T/F 326 21-05-2020 03:05:00 12.7 C 86 % 10.42 C
327 21-05-2020 03:10:00 12.7 C 86 % 10.42 C
328 21-05-2020 03:15:00 12.6 C 87 % 10.5 C
329 21-05-2020 03:20:00 12.6 C 87 % 10.5 C
330 21-05-2020 03:25:00 12.5 C 87 % 10.4 C
331 21-05-2020 03:30:00 12.4 C 87 % 10.3 C
332 21-05-2020 03:35:00 12.4 C 87 % 10.3 C
333 21-05-2020 03:40:00 12.3 C 87 % 10.2 C
334 21-05-2020 03:45:00 12.2 C 87 % 10.1 C
335 21-05-2020 03:50:00 12.1 C 87 % 10 C
336 21-05-2020 03:55:00 12 C 88 % 10.08 C
337 21-05-2020 04:00:00 11.9 C 88 % 9.98 C
338 21-05-2020 04:05:00 11.8 C 88 % 9.88 C
339 21-05-2020 04:10:00 11.8 C 89 % 10.05 C
340 21-05-2020 04:15:00 11.7 C 88 % 9.78 C
341 21-05-2020 04:20:00 11.6 C 89 % 9.85 C
342 21-05-2020 04:25:00 11.4 C 89 % 9.65 C
343 21-05-2020 04:30:00 11.3 C 89 % 9.55 C
344 21-05-2020 04:35:00 11.2 C 89 % 9.46 C
345 21-05-2020 04:40:00 11.2 C 90 % 9.62 C
346 21-05-2020 04:45:00 11.1 C 90 % 9.52 C
347 21-05-2020 04:50:00 11.1 C 90 % 9.52 C
348 21-05-2020 04:55:00 10.9 C 90 % 9.33 C
349 21-05-2020 05:00:00 10.9 C 90 % 9.33 C
350 21-05-2020 05:05:00 10.8 C 91 % 9.39 C
Sensor: Nr:Datum:Temp:Feuchte:Taupunkt:
Aussen-T/F 351 21-05-2020 05:10:00 10.7 C 91 % 9.29 C
352 21-05-2020 05:15:00 10.7 C 91 % 9.29 C
353 21-05-2020 05:20:00 10.7 C 91 % 9.29 C
354 21-05-2020 05:25:00 10.6 C 91 % 9.19 C
355 21-05-2020 05:30:00 10.6 C 92 % 9.36 C
356 21-05-2020 05:35:00 10.5 C 92 % 9.26 C
357 21-05-2020 05:40:00 10.4 C 92 % 9.16 C
358 21-05-2020 05:45:00 10.4 C 92 % 9.16 C
359 21-05-2020 05:50:00 10.3 C 92 % 9.06 C
360 21-05-2020 05:55:00 10.3 C 92 % 9.06 C
361 21-05-2020 06:00:00 10.3 C 92 % 9.06 C
362 21-05-2020 06:05:00 10.3 C 93 % 9.22 C
363 21-05-2020 06:10:00 10.3 C 93 % 9.22 C
364 21-05-2020 06:15:00 10.2 C 93 % 9.12 C
365 21-05-2020 06:20:00 10.2 C 93 % 9.12 C
366 21-05-2020 06:25:00 10.2 C 93 % 9.12 C
367 21-05-2020 06:30:00 10.2 C 93 % 9.12 C
368 21-05-2020 06:35:00 10.2 C 93 % 9.12 C
369 21-05-2020 06:40:00 10.3 C 93 % 9.22 C
370 21-05-2020 06:45:00 10.3 C 93 % 9.22 C
371 21-05-2020 06:50:00 10.3 C 93 % 9.22 C
372 21-05-2020 06:55:00 10.3 C 93 % 9.22 C
373 21-05-2020 07:00:00 10.3 C 94 % 9.38 C
374 21-05-2020 07:05:00 10.3 C 94 % 9.38 C
375 21-05-2020 07:10:00 10.4 C 94 % 9.48 C
Sensor: Nr:Datum:Temp:Feuchte:Taupunkt:
Aussen-T/F 376 21-05-2020 07:15:00 10.5 C 94 % 9.58 C
377 21-05-2020 07:20:00 10.6 C 94 % 9.68 C
378 21-05-2020 07:25:00 10.7 C 94 % 9.77 C
379 21-05-2020 07:30:00 10.7 C 94 % 9.77 C
380 21-05-2020 07:35:00 10.8 C 94 % 9.87 C
381 21-05-2020 07:40:00 10.8 C 94 % 9.87 C
382 21-05-2020 07:45:00 10.9 C 94 % 9.97 C
383 21-05-2020 07:50:00 11 C 95 % 10.23 C
384 21-05-2020 07:55:00 11.1 C 95 % 10.33 C
385 21-05-2020 08:00:00 11.2 C 95 % 10.43 C
386 21-05-2020 08:05:00 11.3 C 95 % 10.53 C
387 21-05-2020 08:10:00 11.4 C 95 % 10.63 C
388 21-05-2020 08:15:00 11.4 C 95 % 10.63 C
389 21-05-2020 08:20:00 11.6 C 95 % 10.83 C
390 21-05-2020 08:25:00 11.7 C 95 % 10.93 C
391 21-05-2020 08:30:00 11.8 C 95 % 11.03 C
392 21-05-2020 08:35:00 11.9 C 95 % 11.13 C
393 21-05-2020 08:40:00 12.1 C 95 % 11.32 C
394 21-05-2020 08:45:00 12.2 C 95 % 11.42 C
395 21-05-2020 08:50:00 12.3 C 95 % 11.52 C
396 21-05-2020 08:55:00 12.5 C 95 % 11.72 C
397 21-05-2020 09:00:00 12.7 C 95 % 11.92 C
398 21-05-2020 09:05:00 12.9 C 95 % 12.12 C
399 21-05-2020 09:10:00 13.1 C 94 % 12.16 C
400 21-05-2020 09:15:00 13.3 C 94 % 12.36 C
Sensor: Nr:Datum:Temp:Feuchte:Taupunkt:
Aussen-T/F 401 21-05-2020 09:20:00 13.6 C 94 % 12.65 C
402 21-05-2020 09:25:00 13.8 C 93 % 12.69 C
403 21-05-2020 09:30:00 14 C 93 % 12.89 C
404 21-05-2020 09:35:00 14.2 C 91 % 12.75 C
405 21-05-2020 09:40:00 14.4 C 91 % 12.95 C
406 21-05-2020 09:45:00 14.7 C 90 % 13.08 C
407 21-05-2020 09:50:00 14.9 C 89 % 13.1 C
408 21-05-2020 09:55:00 15.1 C 88 % 13.13 C
409 21-05-2020 10:00:00 15.3 C 87 % 13.15 C
410 21-05-2020 10:05:00 15.7 C 86 % 13.37 C
411 21-05-2020 10:10:00 16 C 85 % 13.48 C
412 21-05-2020 10:15:00 16.3 C 84 % 13.59 C
413 21-05-2020 10:20:00 16.7 C 84 % 13.98 C
414 21-05-2020 10:25:00 17.1 C 82 % 14 C
415 21-05-2020 10:30:00 17.8 C 78 % 13.91 C
416 21-05-2020 10:35:00 18.6 C 74 % 13.88 C
417 21-05-2020 10:40:00 19.3 C 70 % 13.69 C
418 21-05-2020 10:45:00 19.7 C 69 % 13.86 C
419 21-05-2020 10:50:00 19.9 C 68 % 13.82 C
420 21-05-2020 10:55:00 20.1 C 67 % 13.78 C
421 21-05-2020 11:00:00 20.3 C 67 % 13.97 C
422 21-05-2020 11:05:00 20.6 C 67 % 14.26 C
423 21-05-2020 11:10:00 20.8 C 67 % 14.45 C
424 21-05-2020 11:15:00 21 C 64 % 13.93 C
425 21-05-2020 11:20:00 21.2 C 62 % 13.63 C
Sensor: Nr:Datum:Temp:Feuchte:Taupunkt:
Aussen-T/F 426 21-05-2020 11:25:00 21.3 C 63 % 13.97 C
427 21-05-2020 11:30:00 21.4 C 62 % 13.82 C
428 21-05-2020 11:35:00 21.4 C 62 % 13.82 C
429 21-05-2020 11:40:00 21.5 C 61 % 13.67 C
430 21-05-2020 11:45:00 21.7 C 60 % 13.6 C
431 21-05-2020 11:50:00 21.8 C 60 % 13.69 C
432 21-05-2020 11:55:00 21.8 C 61 % 13.95 C
433 21-05-2020 12:00:00 21.7 C 61 % 13.85 C
434 21-05-2020 12:05:00 21.7 C 60 % 13.6 C
435 21-05-2020 12:10:00 21.8 C 60 % 13.69 C
436 21-05-2020 12:15:00 21.8 C 60 % 13.69 C
437 21-05-2020 12:20:00 22 C 61 % 14.14 C
438 21-05-2020 12:25:00 22.1 C 58 % 13.45 C
439 21-05-2020 12:30:00 22.1 C 58 % 13.45 C
440 21-05-2020 12:35:00 22.3 C 58 % 13.64 C
441 21-05-2020 12:40:00 22.4 C 57 % 13.47 C
442 21-05-2020 12:45:00 22.5 C 58 % 13.83 C
443 21-05-2020 12:50:00 22.7 C 57 % 13.75 C
444 21-05-2020 12:55:00 22.8 C 55 % 13.29 C
445 21-05-2020 13:00:00 22.8 C 54 % 13.01 C
446 21-05-2020 13:05:00 22.8 C 56 % 13.57 C
447 21-05-2020 13:10:00 22.9 C 56 % 13.66 C
448 21-05-2020 13:15:00 23.1 C 55 % 13.57 C
449 21-05-2020 13:20:00 23.1 C 57 % 14.12 C
450 21-05-2020 13:25:00 23.2 C 57 % 14.21 C
Sensor: Nr:Datum:Temp:Feuchte:Taupunkt:
Aussen-T/F 451 21-05-2020 13:30:00 23.3 C 54 % 13.47 C
452 21-05-2020 13:35:00 23.4 C 54 % 13.57 C
453 21-05-2020 13:40:00 23.6 C 54 % 13.75 C
454 21-05-2020 13:45:00 23.6 C 55 % 14.03 C
455 21-05-2020 13:50:00 23.5 C 54 % 13.66 C
456 21-05-2020 13:55:00 23.6 C 55 % 14.03 C
457 21-05-2020 14:00:00 23.7 C 55 % 14.13 C
458 21-05-2020 14:05:00 23.9 C 55 % 14.31 C
459 21-05-2020 14:10:00 24.1 C 54 % 14.21 C
460 21-05-2020 14:15:00 24.3 C 53 % 14.11 C
461 21-05-2020 14:20:00 24.4 C 52 % 13.91 C
462 21-05-2020 14:25:00 24.5 C 53 % 14.3 C
463 21-05-2020 14:30:00 24.8 C 53 % 14.57 C
464 21-05-2020 14:35:00 25.1 C 51 % 14.25 C
465 21-05-2020 14:40:00 25.2 C 50 % 14.04 C
466 21-05-2020 14:45:00 25.2 C 50 % 14.04 C
467 21-05-2020 14:50:00 25.1 C 50 % 13.95 C
468 21-05-2020 14:55:00 25.2 C 50 % 14.04 C
469 21-05-2020 15:00:00 25.5 C 49 % 14 C
470 21-05-2020 15:05:00 25.6 C 48 % 13.78 C
471 21-05-2020 15:10:00 25.7 C 50 % 14.5 C
472 21-05-2020 15:15:00 26.2 C 46 % 13.67 C
473 21-05-2020 15:20:00 26.6 C 46 % 14.03 C
474 21-05-2020 15:25:00 26.9 C 46 % 14.3 C
475 21-05-2020 15:30:00 27.1 C 46 % 14.49 C
Sensor: Nr:Datum:Temp:Feuchte:Taupunkt:
Aussen-T/F 476 21-05-2020 15:35:00 27.5 C 47 % 15.18 C
477 21-05-2020 15:40:00 27.7 C 44 % 14.34 C
478 21-05-2020 15:45:00 27.8 C 42 % 13.71 C
479 21-05-2020 15:50:00 27.8 C 42 % 13.71 C
480 21-05-2020 15:55:00 27.9 C 42 % 13.8 C
481 21-05-2020 16:00:00 27.9 C 41 % 13.43 C
482 21-05-2020 16:05:00 27.8 C 42 % 13.71 C
483 21-05-2020 16:10:00 27.8 C 43 % 14.08 C
484 21-05-2020 16:15:00 27.8 C 42 % 13.71 C
485 21-05-2020 16:20:00 27.8 C 45 % 14.78 C
486 21-05-2020 16:25:00 28.1 C 43 % 14.35 C
487 21-05-2020 16:30:00 28.1 C 41 % 13.61 C
488 21-05-2020 16:35:00 28.2 C 41 % 13.7 C
489 21-05-2020 16:40:00 28.4 C 39 % 13.11 C
490 21-05-2020 16:45:00 28.2 C 38 % 12.54 C
491 21-05-2020 16:50:00 28.3 C 40 % 13.41 C
492 21-05-2020 16:55:00 28.4 C 42 % 14.25 C
493 21-05-2020 17:00:00 28.5 C 39 % 13.2 C
494 21-05-2020 17:05:00 28.5 C 40 % 13.59 C
495 21-05-2020 17:10:00 28.9 C 38 % 13.16 C
496 21-05-2020 17:15:00 29.2 C 39 % 13.82 C
497 21-05-2020 17:20:00 28.9 C 37 % 12.75 C
498 21-05-2020 17:25:00 28.9 C 38 % 13.16 C
499 21-05-2020 17:30:00 29 C 38 % 13.25 C
500 21-05-2020 17:35:00 28.8 C 38 % 13.07 C
Sensor: Nr:Datum:Temp:Feuchte:Taupunkt:
Aussen-T/F 501 21-05-2020 17:40:00 28.7 C 39 % 13.38 C
502 21-05-2020 17:45:00 28.6 C 38 % 12.89 C
503 21-05-2020 17:50:00 28.3 C 38 % 12.63 C
504 21-05-2020 17:55:00 28.1 C 38 % 12.45 C
505 21-05-2020 18:00:00 27.9 C 40 % 13.05 C
506 21-05-2020 18:05:00 28.3 C 40 % 13.41 C
507 21-05-2020 18:10:00 28.9 C 38 % 13.16 C
508 21-05-2020 18:15:00 28.7 C 36 % 12.16 C
509 21-05-2020 18:20:00 28.1 C 37 % 12.04 C
510 21-05-2020 18:25:00 27.9 C 38 % 12.27 C
511 21-05-2020 18:30:00 27.8 C 38 % 12.18 C
512 21-05-2020 18:35:00 27.7 C 39 % 12.49 C
513 21-05-2020 18:40:00 27.5 C 40 % 12.7 C
514 21-05-2020 18:45:00 27.7 C 40 % 12.88 C
515 21-05-2020 18:50:00 28 C 42 % 13.89 C
516 21-05-2020 18:55:00 28.3 C 39 % 13.02 C
517 21-05-2020 19:00:00 28.4 C 39 % 13.11 C
518 21-05-2020 19:05:00 28.6 C 40 % 13.68 C
519 21-05-2020 19:10:00 28.5 C 39 % 13.2 C
520 21-05-2020 19:15:00 28.6 C 38 % 12.89 C
521 21-05-2020 19:20:00 28.4 C 40 % 13.5 C
522 21-05-2020 19:25:00 28.2 C 39 % 12.93 C
523 21-05-2020 19:30:00 27.9 C 40 % 13.05 C
524 21-05-2020 19:35:00 27.7 C 41 % 13.25 C
525 21-05-2020 19:40:00 27.7 C 43 % 13.99 C
Sensor: Nr:Datum:Temp:Feuchte:Taupunkt:
Aussen-T/F 526 21-05-2020 19:45:00 27.7 C 48 % 15.69 C
527 21-05-2020 19:50:00 27.7 C 48 % 15.69 C
528 21-05-2020 19:55:00 27.6 C 48 % 15.6 C
529 21-05-2020 20:00:00 27.6 C 48 % 15.6 C
530 21-05-2020 20:05:00 27.3 C 49 % 15.65 C
531 21-05-2020 20:10:00 26.9 C 49 % 15.28 C
532 21-05-2020 20:15:00 26.3 C 50 % 15.05 C
533 21-05-2020 20:20:00 25.7 C 52 % 15.11 C
534 21-05-2020 20:25:00 25.1 C 54 % 15.14 C
535 21-05-2020 20:30:00 24.7 C 55 % 15.05 C
536 21-05-2020 20:35:00 24.5 C 56 % 15.15 C
537 21-05-2020 20:40:00 24.3 C 57 % 15.24 C
538 21-05-2020 20:45:00 24.1 C 57 % 15.05 C
539 21-05-2020 20:50:00 23.8 C 58 % 15.04 C
540 21-05-2020 20:55:00 23.4 C 59 % 14.93 C
541 21-05-2020 21:00:00 23.1 C 60 % 14.91 C
542 21-05-2020 21:05:00 22.6 C 61 % 14.7 C
543 21-05-2020 21:10:00 22.2 C 62 % 14.58 C
544 21-05-2020 21:15:00 21.8 C 63 % 14.45 C
545 21-05-2020 21:20:00 21.5 C 64 % 14.41 C
546 21-05-2020 21:25:00 21.2 C 65 % 14.36 C
547 21-05-2020 21:30:00 20.9 C 66 % 14.31 C
548 21-05-2020 21:35:00 20.7 C 67 % 14.36 C
549 21-05-2020 21:40:00 20.4 C 67 % 14.07 C
550 21-05-2020 21:45:00 20.2 C 68 % 14.11 C
Sensor: Nr:Datum:Temp:Feuchte:Taupunkt:
Aussen-T/F 551 21-05-2020 21:50:00 20 C 69 % 14.14 C
552 21-05-2020 21:55:00 19.8 C 69 % 13.95 C
553 21-05-2020 22:00:00 19.7 C 70 % 14.08 C
554 21-05-2020 22:05:00 19.6 C 70 % 13.98 C
555 21-05-2020 22:10:00 19.5 C 71 % 14.1 C
556 21-05-2020 22:15:00 19.4 C 71 % 14.01 C
557 21-05-2020 22:20:00 19.3 C 72 % 14.13 C
558 21-05-2020 22:25:00 19.1 C 72 % 13.94 C
559 21-05-2020 22:30:00 18.9 C 73 % 13.96 C
560 21-05-2020 22:35:00 18.8 C 74 % 14.07 C
561 21-05-2020 22:40:00 18.8 C 74 % 14.07 C
562 21-05-2020 22:45:00 18.7 C 74 % 13.97 C
563 21-05-2020 22:50:00 18.7 C 74 % 13.97 C
564 21-05-2020 22:55:00 18.7 C 74 % 13.97 C
565 21-05-2020 23:00:00 18.7 C 73 % 13.76 C
566 21-05-2020 23:05:00 18.8 C 73 % 13.86 C
567 21-05-2020 23:10:00 18.9 C 73 % 13.96 C
568 21-05-2020 23:15:00 18.9 C 73 % 13.96 C
569 21-05-2020 23:20:00 18.9 C 73 % 13.96 C
570 21-05-2020 23:25:00 18.9 C 73 % 13.96 C
571 21-05-2020 23:30:00 18.8 C 73 % 13.86 C
572 21-05-2020 23:35:00 18.7 C 73 % 13.76 C
573 21-05-2020 23:40:00 18.6 C 73 % 13.67 C
574 21-05-2020 23:45:00 18.4 C 74 % 13.68 C
575 21-05-2020 23:50:00 18.3 C 74 % 13.59 C
Sensor: Nr:Datum:Temp:Feuchte:Taupunkt:
Aussen-T/F 576 21-05-2020 23:55:00 18.2 C 74 % 13.49 C
577 22-05-2020 00:00:00 18.1 C 75 % 13.6 C
578 22-05-2020 00:05:00 17.9 C 75 % 13.41 C
579 22-05-2020 00:10:00 17.9 C 75 % 13.41 C
580 22-05-2020 00:15:00 17.8 C 75 % 13.31 C
581 22-05-2020 00:20:00 17.7 C 76 % 13.42 C
582 22-05-2020 00:25:00 17.6 C 76 % 13.32 C
583 22-05-2020 00:30:00 17.5 C 76 % 13.23 C
584 22-05-2020 00:35:00 17.4 C 76 % 13.13 C
585 22-05-2020 00:40:00 17.4 C 77 % 13.33 C
586 22-05-2020 00:45:00 17.3 C 77 % 13.23 C
587 22-05-2020 00:50:00 17.2 C 77 % 13.14 C
588 22-05-2020 00:55:00 16.9 C 77 % 12.84 C
589 22-05-2020 01:00:00 16.8 C 78 % 12.94 C
590 22-05-2020 01:05:00 16.7 C 78 % 12.85 C
591 22-05-2020 01:10:00 16.6 C 79 % 12.95 C
592 22-05-2020 01:15:00 16.4 C 79 % 12.75 C
593 22-05-2020 01:20:00 16.3 C 79 % 12.65 C
594 22-05-2020 01:25:00 16.3 C 80 % 12.85 C
595 22-05-2020 01:30:00 16.2 C 80 % 12.75 C
596 22-05-2020 01:35:00 16.1 C 80 % 12.65 C
597 22-05-2020 01:40:00 15.9 C 81 % 12.65 C
598 22-05-2020 01:45:00 15.9 C 81 % 12.65 C
599 22-05-2020 01:50:00 15.8 C 81 % 12.55 C
600 22-05-2020 01:55:00 15.7 C 82 % 12.64 C
Sensor: Nr:Datum:Temp:Feuchte:Taupunkt:
Aussen-T/F 601 22-05-2020 02:00:00 15.6 C 83 % 12.72 C
602 22-05-2020 02:05:00 15.6 C 83 % 12.72 C
603 22-05-2020 02:10:00 15.5 C 83 % 12.63 C
604 22-05-2020 02:15:00 15.4 C 83 % 12.53 C
605 22-05-2020 02:20:00 15.3 C 84 % 12.61 C
606 22-05-2020 02:25:00 15.3 C 84 % 12.61 C
607 22-05-2020 02:30:00 15.3 C 85 % 12.79 C
608 22-05-2020 02:35:00 15.2 C 85 % 12.7 C
609 22-05-2020 02:40:00 15.2 C 85 % 12.7 C
610 22-05-2020 02:45:00 15.1 C 85 % 12.6 C
611 22-05-2020 02:50:00 15.1 C 85 % 12.6 C
612 22-05-2020 02:55:00 15 C 85 % 12.5 C
613 22-05-2020 03:00:00 14.9 C 85 % 12.4 C
614 22-05-2020 03:05:00 14.9 C 86 % 12.58 C
615 22-05-2020 03:10:00 14.8 C 86 % 12.48 C
616 22-05-2020 03:15:00 14.8 C 86 % 12.48 C
617 22-05-2020 03:20:00 14.8 C 86 % 12.48 C
618 22-05-2020 03:25:00 14.7 C 86 % 12.38 C
619 22-05-2020 03:30:00 14.6 C 86 % 12.29 C
620 22-05-2020 03:35:00 14.5 C 86 % 12.19 C
621 22-05-2020 03:40:00 14.4 C 86 % 12.09 C
622 22-05-2020 03:45:00 14.4 C 86 % 12.09 C
623 22-05-2020 03:50:00 14.3 C 86 % 11.99 C
624 22-05-2020 03:55:00 14.2 C 86 % 11.89 C
625 22-05-2020 04:00:00 14.1 C 87 % 11.97 C
Sensor: Nr:Datum:Temp:Feuchte:Taupunkt:
Aussen-T/F 626 22-05-2020 04:05:00 13.9 C 87 % 11.77 C
627 22-05-2020 04:10:00 13.8 C 87 % 11.68 C
628 22-05-2020 04:15:00 13.7 C 88 % 11.75 C
629 22-05-2020 04:20:00 13.7 C 89 % 11.92 C
630 22-05-2020 04:25:00 13.6 C 89 % 11.82 C
631 22-05-2020 04:30:00 13.6 C 89 % 11.82 C
632 22-05-2020 04:35:00 13.4 C 89 % 11.63 C
633 22-05-2020 04:40:00 13.4 C 89 % 11.63 C
634 22-05-2020 04:45:00 13.3 C 89 % 11.53 C
635 22-05-2020 04:50:00 13.3 C 90 % 11.7 C
636 22-05-2020 04:55:00 13.2 C 90 % 11.6 C
637 22-05-2020 05:00:00 13.2 C 90 % 11.6 C
638 22-05-2020 05:05:00 13.2 C 90 % 11.6 C
639 22-05-2020 05:10:00 13.1 C 91 % 11.67 C
640 22-05-2020 05:15:00 13.1 C 91 % 11.67 C
641 22-05-2020 05:20:00 13 C 91 % 11.57 C
642 22-05-2020 05:25:00 13 C 91 % 11.57 C
643 22-05-2020 05:30:00 12.9 C 91 % 11.47 C
644 22-05-2020 05:35:00 12.8 C 91 % 11.37 C
645 22-05-2020 05:40:00 12.8 C 91 % 11.37 C
646 22-05-2020 05:45:00 12.8 C 92 % 11.53 C
647 22-05-2020 05:50:00 12.7 C 92 % 11.43 C
648 22-05-2020 05:55:00 12.8 C 92 % 11.53 C
649 22-05-2020 06:00:00 12.8 C 92 % 11.53 C
650 22-05-2020 06:05:00 12.8 C 92 % 11.53 C
Sensor: Nr:Datum:Temp:Feuchte:Taupunkt:
Aussen-T/F 651 22-05-2020 06:10:00 12.8 C 93 % 11.7 C
652 22-05-2020 06:15:00 12.9 C 93 % 11.8 C
653 22-05-2020 06:20:00 13.1 C 93 % 11.99 C
654 22-05-2020 06:25:00 13.1 C 93 % 11.99 C
655 22-05-2020 06:30:00 13.2 C 93 % 12.09 C
656 22-05-2020 06:35:00 13.3 C 93 % 12.19 C
657 22-05-2020 06:40:00 13.5 C 94 % 12.55 C
658 22-05-2020 06:45:00 13.7 C 94 % 12.75 C
659 22-05-2020 06:50:00 13.8 C 94 % 12.85 C
660 22-05-2020 06:55:00 14 C 94 % 13.05 C
661 22-05-2020 07:00:00 14.2 C 94 % 13.25 C
662 22-05-2020 07:05:00 14.3 C 94 % 13.35 C
663 22-05-2020 07:10:00 14.4 C 93 % 13.28 C
664 22-05-2020 07:15:00 14.6 C 93 % 13.48 C
665 22-05-2020 07:20:00 14.7 C 93 % 13.58 C
666 22-05-2020 07:25:00 14.9 C 93 % 13.78 C
667 22-05-2020 07:30:00 15 C 93 % 13.88 C
668 22-05-2020 07:35:00 15.2 C 92 % 13.91 C
669 22-05-2020 07:40:00 15.3 C 92 % 14.01 C
670 22-05-2020 07:45:00 15.4 C 91 % 13.94 C
671 22-05-2020 07:50:00 15.6 C 91 % 14.14 C
672 22-05-2020 07:55:00 15.8 C 90 % 14.16 C
673 22-05-2020 08:00:00 16 C 90 % 14.36 C
674 22-05-2020 08:05:00 16.2 C 89 % 14.39 C
675 22-05-2020 08:10:00 16.4 C 88 % 14.41 C
Sensor: Nr:Datum:Temp:Feuchte:Taupunkt:
Aussen-T/F 676 22-05-2020 08:15:00 16.7 C 86 % 14.35 C
677 22-05-2020 08:20:00 17.1 C 85 % 14.56 C
678 22-05-2020 08:25:00 17.4 C 84 % 14.67 C
679 22-05-2020 08:30:00 17.7 C 84 % 14.96 C
680 22-05-2020 08:35:00 18.1 C 81 % 14.79 C
681 22-05-2020 08:40:00 18.4 C 80 % 14.89 C
682 22-05-2020 08:45:00 18.7 C 79 % 14.99 C
683 22-05-2020 08:50:00 18.9 C 79 % 15.18 C
684 22-05-2020 08:55:00 19.1 C 78 % 15.18 C
685 22-05-2020 09:00:00 19.3 C 77 % 15.17 C
686 22-05-2020 09:05:00 19.3 C 77 % 15.17 C
687 22-05-2020 09:10:00 19.4 C 76 % 15.06 C
688 22-05-2020 09:15:00 19.6 C 76 % 15.26 C
689 22-05-2020 09:20:00 19.8 C 76 % 15.45 C
690 22-05-2020 09:25:00 19.9 C 75 % 15.34 C
691 22-05-2020 09:30:00 20.1 C 74 % 15.32 C
692 22-05-2020 09:35:00 20.1 C 74 % 15.32 C
693 22-05-2020 09:40:00 20.2 C 75 % 15.63 C
694 22-05-2020 09:45:00 20.3 C 75 % 15.72 C
695 22-05-2020 09:50:00 20.4 C 75 % 15.82 C
696 22-05-2020 09:55:00 20.6 C 74 % 15.8 C
697 22-05-2020 10:00:00 20.7 C 74 % 15.9 C
698 22-05-2020 10:05:00 20.9 C 74 % 16.09 C
699 22-05-2020 10:10:00 21.1 C 73 % 16.07 C
700 22-05-2020 10:15:00 21.3 C 73 % 16.26 C
Sensor: Nr:Datum:Temp:Feuchte:Taupunkt:
Aussen-T/F 701 22-05-2020 10:20:00 21.5 C 72 % 16.24 C
702 22-05-2020 10:25:00 21.7 C 72 % 16.43 C
703 22-05-2020 10:30:00 21.8 C 71 % 16.31 C
704 22-05-2020 10:35:00 21.9 C 71 % 16.4 C
705 22-05-2020 10:40:00 21.9 C 71 % 16.4 C
706 22-05-2020 10:45:00 22.1 C 71 % 16.6 C
707 22-05-2020 10:50:00 22.3 C 70 % 16.56 C
708 22-05-2020 10:55:00 22.6 C 70 % 16.85 C
709 22-05-2020 11:00:00 22.8 C 69 % 16.82 C
710 22-05-2020 11:05:00 23 C 69 % 17.01 C
711 22-05-2020 11:10:00 23.2 C 67 % 16.73 C
712 22-05-2020 11:15:00 23.4 C 66 % 16.69 C
713 22-05-2020 11:20:00 23.5 C 66 % 16.78 C
714 22-05-2020 11:25:00 23.7 C 67 % 17.21 C
715 22-05-2020 11:30:00 23.8 C 64 % 16.58 C
716 22-05-2020 11:35:00 23.9 C 63 % 16.43 C
717 22-05-2020 11:40:00 24 C 63 % 16.52 C
718 22-05-2020 11:45:00 24.1 C 63 % 16.62 C
719 22-05-2020 11:50:00 24.3 C 62 % 16.55 C
720 22-05-2020 11:55:00 24.4 C 61 % 16.39 C
721 22-05-2020 12:00:00 24.4 C 60 % 16.13 C
722 22-05-2020 12:05:00 24.4 C 60 % 16.13 C
723 22-05-2020 12:10:00 24.5 C 61 % 16.49 C
724 22-05-2020 12:15:00 24.4 C 60 % 16.13 C
725 22-05-2020 12:20:00 24.4 C 62 % 16.65 C
Sensor: Nr:Datum:Temp:Feuchte:Taupunkt:
Aussen-T/F 726 22-05-2020 12:25:00 24.5 C 60 % 16.23 C
727 22-05-2020 12:30:00 24.6 C 61 % 16.58 C
728 22-05-2020 12:35:00 24.5 C 61 % 16.49 C
729 22-05-2020 12:40:00 24.6 C 61 % 16.58 C
730 22-05-2020 12:45:00 24.6 C 61 % 16.58 C
731 22-05-2020 12:50:00 24.6 C 63 % 17.09 C
732 22-05-2020 12:55:00 24.7 C 61 % 16.67 C
733 22-05-2020 13:00:00 24.7 C 64 % 17.43 C
734 22-05-2020 13:05:00 24.7 C 63 % 17.18 C
735 22-05-2020 13:10:00 24.7 C 62 % 16.93 C
736 22-05-2020 13:15:00 24.8 C 62 % 17.02 C
737 22-05-2020 13:20:00 24.9 C 61 % 16.86 C
738 22-05-2020 13:25:00 24.9 C 60 % 16.6 C
739 22-05-2020 13:30:00 25.1 C 66 % 18.3 C
740 22-05-2020 13:35:00 25.3 C 59 % 16.71 C
741 22-05-2020 13:40:00 25.4 C 59 % 16.81 C
742 22-05-2020 13:45:00 25.6 C 62 % 17.78 C
743 22-05-2020 13:50:00 25.8 C 58 % 16.91 C
744 22-05-2020 13:55:00 26 C 57 % 16.82 C
745 22-05-2020 14:00:00 26.1 C 59 % 17.46 C
746 22-05-2020 14:05:00 26.2 C 60 % 17.82 C
747 22-05-2020 14:10:00 26.2 C 58 % 17.28 C
748 22-05-2020 14:15:00 26.2 C 59 % 17.55 C
749 22-05-2020 14:20:00 26.3 C 58 % 17.38 C
750 22-05-2020 14:25:00 26.3 C 59 % 17.65 C
Sensor: Nr:Datum:Temp:Feuchte:Taupunkt:
Aussen-T/F 751 22-05-2020 14:30:00 26.4 C 57 % 17.19 C
752 22-05-2020 14:35:00 26.3 C 57 % 17.1 C
753 22-05-2020 14:40:00 26.2 C 57 % 17.01 C
754 22-05-2020 14:45:00 26.2 C 56 % 16.73 C
755 22-05-2020 14:50:00 26.3 C 56 % 16.82 C
756 22-05-2020 14:55:00 26.4 C 55 % 16.63 C
757 22-05-2020 15:00:00 26.3 C 55 % 16.54 C
758 22-05-2020 15:05:00 26.3 C 54 % 16.25 C
759 22-05-2020 15:10:00 26.5 C 54 % 16.44 C
760 22-05-2020 15:15:00 26.6 C 54 % 16.53 C
761 22-05-2020 15:20:00 26.8 C 54 % 16.71 C
762 22-05-2020 15:25:00 26.8 C 53 % 16.42 C
763 22-05-2020 15:30:00 26.6 C 53 % 16.23 C
764 22-05-2020 15:35:00 26.4 C 54 % 16.34 C
765 22-05-2020 15:40:00 26.2 C 55 % 16.45 C
766 22-05-2020 15:45:00 26.1 C 55 % 16.35 C
767 22-05-2020 15:50:00 25.9 C 55 % 16.17 C
768 22-05-2020 15:55:00 25.9 C 56 % 16.45 C
769 22-05-2020 16:00:00 25.9 C 56 % 16.45 C
770 22-05-2020 16:05:00 25.9 C 57 % 16.73 C
771 22-05-2020 16:10:00 25.9 C 55 % 16.17 C
772 22-05-2020 16:15:00 25.9 C 55 % 16.17 C
773 22-05-2020 16:20:00 25.9 C 55 % 16.17 C
774 22-05-2020 16:25:00 26.1 C 55 % 16.35 C
775 22-05-2020 16:30:00 26.2 C 56 % 16.73 C
Sensor: Nr:Datum:Temp:Feuchte:Taupunkt:
Aussen-T/F 776 22-05-2020 16:35:00 26.2 C 54 % 16.16 C
777 22-05-2020 16:40:00 26.2 C 56 % 16.73 C
778 22-05-2020 16:45:00 26.3 C 55 % 16.54 C
779 22-05-2020 16:50:00 26.3 C 56 % 16.82 C
780 22-05-2020 16:55:00 26.2 C 55 % 16.45 C
781 22-05-2020 17:00:00 26.2 C 56 % 16.73 C
782 22-05-2020 17:05:00 26.1 C 55 % 16.35 C
783 22-05-2020 17:10:00 26.1 C 55 % 16.35 C
784 22-05-2020 17:15:00 26.1 C 56 % 16.64 C
785 22-05-2020 17:20:00 26.2 C 56 % 16.73 C
786 22-05-2020 17:25:00 26.3 C 57 % 17.1 C
787 22-05-2020 17:30:00 26.4 C 58 % 17.47 C
788 22-05-2020 17:35:00 26.4 C 55 % 16.63 C
789 22-05-2020 17:40:00 26.4 C 57 % 17.19 C
790 22-05-2020 17:45:00 26.3 C 58 % 17.38 C
791 22-05-2020 17:50:00 26.2 C 57 % 17.01 C
792 22-05-2020 17:55:00 26.1 C 56 % 16.64 C
793 22-05-2020 18:00:00 25.9 C 57 % 16.73 C
794 22-05-2020 18:05:00 25.9 C 58 % 17 C
795 22-05-2020 18:10:00 25.8 C 59 % 17.18 C
796 22-05-2020 18:15:00 25.7 C 57 % 16.54 C
797 22-05-2020 18:20:00 25.6 C 61 % 17.52 C
798 22-05-2020 18:25:00 25.3 C 62 % 17.5 C
799 22-05-2020 18:30:00 25 C 64 % 17.72 C
800 22-05-2020 18:35:00 24.8 C 65 % 17.77 C
Sensor: Nr:Datum:Temp:Feuchte:Taupunkt:
Aussen-T/F 801 22-05-2020 18:40:00 24.7 C 66 % 17.92 C
802 22-05-2020 18:45:00 24.4 C 67 % 17.87 C
803 22-05-2020 18:50:00 24.2 C 67 % 17.68 C
804 22-05-2020 18:55:00 24.1 C 67 % 17.59 C
805 22-05-2020 19:00:00 24 C 66 % 17.26 C
806 22-05-2020 19:05:00 24 C 65 % 17.01 C
807 22-05-2020 19:10:00 24.1 C 64 % 16.86 C
808 22-05-2020 19:15:00 24.4 C 62 % 16.65 C
809 22-05-2020 19:20:00 24.6 C 63 % 17.09 C
810 22-05-2020 19:25:00 24.7 C 63 % 17.18 C
811 22-05-2020 19:30:00 24.7 C 64 % 17.43 C
812 22-05-2020 19:35:00 24.6 C 63 % 17.09 C
813 22-05-2020 19:40:00 24.4 C 65 % 17.39 C
814 22-05-2020 19:45:00 24.2 C 64 % 16.96 C
815 22-05-2020 19:50:00 23.9 C 65 % 16.92 C
816 22-05-2020 19:55:00 23.7 C 65 % 16.73 C
817 22-05-2020 20:00:00 23.5 C 66 % 16.78 C
818 22-05-2020 20:05:00 23.2 C 68 % 16.97 C
819 22-05-2020 20:10:00 22.7 C 70 % 16.95 C
820 22-05-2020 20:15:00 22.2 C 71 % 16.69 C
821 22-05-2020 20:20:00 21.7 C 73 % 16.65 C
822 22-05-2020 20:25:00 21.2 C 74 % 16.38 C
823 22-05-2020 20:30:00 20.8 C 76 % 16.41 C
824 22-05-2020 20:35:00 20.5 C 77 % 16.33 C
825 22-05-2020 20:40:00 20.2 C 79 % 16.44 C
Sensor: Nr:Datum:Temp:Feuchte:Taupunkt:
Aussen-T/F 826 22-05-2020 20:45:00 19.9 C 79 % 16.15 C
827 22-05-2020 20:50:00 19.7 C 79 % 15.96 C
828 22-05-2020 20:55:00 19.5 C 81 % 16.15 C
829 22-05-2020 21:00:00 19.3 C 82 % 16.15 C
830 22-05-2020 21:05:00 19 C 83 % 16.05 C
831 22-05-2020 21:10:00 18.8 C 84 % 16.04 C
832 22-05-2020 21:15:00 18.6 C 86 % 16.21 C
833 22-05-2020 21:20:00 18.4 C 86 % 16.02 C
834 22-05-2020 21:25:00 18.3 C 87 % 16.1 C
835 22-05-2020 21:30:00 18.2 C 87 % 16 C
836 22-05-2020 21:35:00 18.1 C 88 % 16.08 C
837 22-05-2020 21:40:00 18 C 89 % 16.16 C
838 22-05-2020 21:45:00 17.9 C 89 % 16.06 C
839 22-05-2020 21:50:00 17.8 C 90 % 16.14 C
840 22-05-2020 21:55:00 17.8 C 90 % 16.14 C
841 22-05-2020 22:00:00 17.7 C 90 % 16.04 C
842 22-05-2020 22:05:00 17.7 C 91 % 16.21 C
843 22-05-2020 22:10:00 17.6 C 91 % 16.11 C
844 22-05-2020 22:15:00 17.6 C 92 % 16.28 C
845 22-05-2020 22:20:00 17.6 C 92 % 16.28 C
846 22-05-2020 22:25:00 17.6 C 92 % 16.28 C
847 22-05-2020 22:30:00 17.5 C 92 % 16.19 C
848 22-05-2020 22:35:00 17.4 C 93 % 16.26 C
849 22-05-2020 22:40:00 17.4 C 93 % 16.26 C
850 22-05-2020 22:45:00 17.3 C 93 % 16.16 C
Sensor: Nr:Datum:Temp:Feuchte:Taupunkt:
Aussen-T/F 851 22-05-2020 22:50:00 17.3 C 93 % 16.16 C
852 22-05-2020 22:55:00 17.3 C 93 % 16.16 C
853 22-05-2020 23:00:00 17.3 C 93 % 16.16 C
854 22-05-2020 23:05:00 17.2 C 93 % 16.06 C
855 22-05-2020 23:10:00 17.2 C 93 % 16.06 C
856 22-05-2020 23:15:00 17.2 C 93 % 16.06 C
857 22-05-2020 23:20:00 17.2 C 94 % 16.23 C
858 22-05-2020 23:25:00 17.1 C 94 % 16.13 C
859 22-05-2020 23:30:00 17.1 C 94 % 16.13 C
860 22-05-2020 23:35:00 17.1 C 94 % 16.13 C
861 22-05-2020 23:40:00 17.1 C 94 % 16.13 C
862 22-05-2020 23:45:00 16.9 C 94 % 15.93 C
863 22-05-2020 23:50:00 16.9 C 94 % 15.93 C
864 22-05-2020 23:55:00 16.8 C 94 % 15.83 C
865 23-05-2020 00:00:00 16.8 C 94 % 15.83 C
866 23-05-2020 00:05:00 16.8 C 94 % 15.83 C
867 23-05-2020 00:10:00 16.8 C 94 % 15.83 C
868 23-05-2020 00:15:00 16.8 C 95 % 15.99 C
869 23-05-2020 00:20:00 16.7 C 95 % 15.9 C
870 23-05-2020 00:25:00 16.7 C 95 % 15.9 C
871 23-05-2020 00:30:00 16.7 C 94 % 15.73 C
872 23-05-2020 00:35:00 16.7 C 95 % 15.9 C
873 23-05-2020 00:40:00 16.6 C 95 % 15.8 C
874 23-05-2020 00:45:00 16.6 C 95 % 15.8 C
875 23-05-2020 00:50:00 16.6 C 95 % 15.8 C
Sensor: Nr:Datum:Temp:Feuchte:Taupunkt:
Aussen-T/F 876 23-05-2020 00:55:00 16.6 C 95 % 15.8 C
877 23-05-2020 01:00:00 16.6 C 95 % 15.8 C
878 23-05-2020 01:05:00 16.6 C 95 % 15.8 C
879 23-05-2020 01:10:00 16.5 C 95 % 15.7 C
880 23-05-2020 01:15:00 16.6 C 95 % 15.8 C
881 23-05-2020 01:20:00 16.6 C 96 % 15.96 C
882 23-05-2020 01:25:00 16.6 C 95 % 15.8 C
883 23-05-2020 01:30:00 16.5 C 95 % 15.7 C
884 23-05-2020 01:35:00 16.3 C 95 % 15.5 C
885 23-05-2020 01:40:00 15.9 C 94 % 14.94 C
886 23-05-2020 01:45:00 15.4 C 92 % 14.11 C
887 23-05-2020 01:50:00 15.1 C 92 % 13.81 C
888 23-05-2020 01:55:00 14.8 C 93 % 13.68 C
889 23-05-2020 02:00:00 14.7 C 93 % 13.58 C
890 23-05-2020 02:05:00 14.5 C 93 % 13.38 C
891 23-05-2020 02:10:00 14.3 C 93 % 13.18 C
892 23-05-2020 02:15:00 14.3 C 94 % 13.35 C
893 23-05-2020 02:20:00 14.2 C 94 % 13.25 C
894 23-05-2020 02:25:00 14.2 C 94 % 13.25 C
895 23-05-2020 02:30:00 14.2 C 94 % 13.25 C
896 23-05-2020 02:35:00 14.1 C 94 % 13.15 C
897 23-05-2020 02:40:00 14.1 C 94 % 13.15 C
898 23-05-2020 02:45:00 14 C 94 % 13.05 C
899 23-05-2020 02:50:00 13.9 C 95 % 13.11 C
900 23-05-2020 02:55:00 13.9 C 95 % 13.11 C
Sensor: Nr:Datum:Temp:Feuchte:Taupunkt:
Aussen-T/F 901 23-05-2020 03:00:00 13.9 C 95 % 13.11 C
902 23-05-2020 03:05:00 13.8 C 95 % 13.01 C
903 23-05-2020 03:10:00 13.8 C 95 % 13.01 C
904 23-05-2020 03:15:00 13.7 C 95 % 12.91 C
905 23-05-2020 03:20:00 13.7 C 95 % 12.91 C
906 23-05-2020 03:25:00 13.6 C 95 % 12.81 C
907 23-05-2020 03:30:00 13.6 C 95 % 12.81 C
908 23-05-2020 03:35:00 13.5 C 95 % 12.72 C
909 23-05-2020 03:40:00 13.5 C 95 % 12.72 C
910 23-05-2020 03:45:00 13.6 C 95 % 12.81 C
911 23-05-2020 03:50:00 13.6 C 95 % 12.81 C
912 23-05-2020 03:55:00 13.6 C 95 % 12.81 C
913 23-05-2020 04:00:00 13.6 C 96 % 12.97 C
914 23-05-2020 04:05:00 13.7 C 96 % 13.07 C
915 23-05-2020 04:10:00 13.7 C 96 % 13.07 C
916 23-05-2020 04:15:00 13.8 C 96 % 13.17 C
917 23-05-2020 04:20:00 13.8 C 96 % 13.17 C
918 23-05-2020 04:25:00 13.8 C 96 % 13.17 C
919 23-05-2020 04:30:00 13.8 C 96 % 13.17 C
920 23-05-2020 04:35:00 13.8 C 96 % 13.17 C
921 23-05-2020 04:40:00 13.8 C 96 % 13.17 C
922 23-05-2020 04:45:00 13.7 C 96 % 13.07 C
923 23-05-2020 04:50:00 13.4 C 95 % 12.62 C
924 23-05-2020 04:55:00 13.1 C 94 % 12.16 C
925 23-05-2020 05:00:00 12.7 C 94 % 11.76 C
Sensor: Nr:Datum:Temp:Feuchte:Taupunkt:
Aussen-T/F 926 23-05-2020 05:05:00 12.5 C 94 % 11.56 C
927 23-05-2020 05:10:00 12.3 C 94 % 11.36 C
928 23-05-2020 05:15:00 12.2 C 95 % 11.42 C
929 23-05-2020 05:20:00 12.1 C 95 % 11.32 C
930 23-05-2020 05:25:00 12 C 95 % 11.22 C
931 23-05-2020 05:30:00 11.9 C 95 % 11.13 C
932 23-05-2020 05:35:00 11.8 C 95 % 11.03 C
933 23-05-2020 05:40:00 11.8 C 95 % 11.03 C
934 23-05-2020 05:45:00 11.7 C 95 % 10.93 C
935 23-05-2020 05:50:00 11.6 C 95 % 10.83 C
936 23-05-2020 05:55:00 11.6 C 95 % 10.83 C
937 23-05-2020 06:00:00 11.4 C 95 % 10.63 C
938 23-05-2020 06:05:00 11.4 C 95 % 10.63 C
939 23-05-2020 06:10:00 11.4 C 95 % 10.63 C
940 23-05-2020 06:15:00 11.5 C 95 % 10.73 C
941 23-05-2020 06:20:00 11.6 C 96 % 10.98 C
942 23-05-2020 06:25:00 11.6 C 96 % 10.98 C
943 23-05-2020 06:30:00 11.6 C 96 % 10.98 C
944 23-05-2020 06:35:00 11.6 C 96 % 10.98 C
945 23-05-2020 06:40:00 11.7 C 96 % 11.08 C
946 23-05-2020 06:45:00 11.7 C 96 % 11.08 C
947 23-05-2020 06:50:00 11.8 C 96 % 11.18 C
948 23-05-2020 06:55:00 11.9 C 96 % 11.28 C
949 23-05-2020 07:00:00 12 C 96 % 11.38 C
950 23-05-2020 07:05:00 12 C 96 % 11.38 C
Sensor: Nr:Datum:Temp:Feuchte:Taupunkt:
Aussen-T/F 951 23-05-2020 07:10:00 12 C 96 % 11.38 C
952 23-05-2020 07:15:00 12.1 C 96 % 11.48 C
953 23-05-2020 07:20:00 12.2 C 96 % 11.58 C
954 23-05-2020 07:25:00 12.2 C 96 % 11.58 C
955 23-05-2020 07:30:00 12.3 C 96 % 11.68 C
956 23-05-2020 07:35:00 12.4 C 96 % 11.78 C
957 23-05-2020 07:40:00 12.6 C 96 % 11.98 C
958 23-05-2020 07:45:00 12.7 C 97 % 12.24 C
959 23-05-2020 07:50:00 12.8 C 97 % 12.34 C
960 23-05-2020 07:55:00 12.9 C 97 % 12.44 C
961 23-05-2020 08:00:00 12.9 C 96 % 12.28 C
962 23-05-2020 08:05:00 12.9 C 96 % 12.28 C
963 23-05-2020 08:10:00 12.9 C 96 % 12.28 C
964 23-05-2020 08:15:00 12.9 C 96 % 12.28 C
965 23-05-2020 08:20:00 12.9 C 96 % 12.28 C
966 23-05-2020 08:25:00 13.1 C 96 % 12.48 C
967 23-05-2020 08:30:00 13.2 C 97 % 12.73 C
968 23-05-2020 08:35:00 13.2 C 96 % 12.58 C
969 23-05-2020 08:40:00 13.2 C 96 % 12.58 C
970 23-05-2020 08:45:00 13.2 C 96 % 12.58 C
971 23-05-2020 08:50:00 13.2 C 96 % 12.58 C
972 23-05-2020 08:55:00 13.2 C 96 % 12.58 C
973 23-05-2020 09:00:00 13.3 C 96 % 12.68 C
974 23-05-2020 09:05:00 13.2 C 95 % 12.42 C
975 23-05-2020 09:10:00 13.1 C 95 % 12.32 C
Sensor: Nr:Datum:Temp:Feuchte:Taupunkt:
Aussen-T/F 976 23-05-2020 09:15:00 13.1 C 95 % 12.32 C
977 23-05-2020 09:20:00 12.9 C 95 % 12.12 C
978 23-05-2020 09:25:00 12.8 C 95 % 12.02 C
979 23-05-2020 09:30:00 12.8 C 95 % 12.02 C
980 23-05-2020 09:35:00 12.8 C 95 % 12.02 C
981 23-05-2020 09:40:00 12.9 C 95 % 12.12 C
982 23-05-2020 09:45:00 12.9 C 95 % 12.12 C
983 23-05-2020 09:50:00 13 C 95 % 12.22 C
984 23-05-2020 09:55:00 12.9 C 94 % 11.96 C
985 23-05-2020 10:00:00 12.9 C 94 % 11.96 C
986 23-05-2020 10:05:00 12.9 C 94 % 11.96 C
987 23-05-2020 10:10:00 12.9 C 95 % 12.12 C
988 23-05-2020 10:15:00 13 C 95 % 12.22 C
989 23-05-2020 10:20:00 13.1 C 95 % 12.32 C
990 23-05-2020 10:25:00 13 C 94 % 12.06 C
991 23-05-2020 10:30:00 12.7 C 93 % 11.6 C
992 23-05-2020 10:35:00 12.3 C 90 % 10.71 C
993 23-05-2020 10:40:00 12.1 C 89 % 10.34 C
994 23-05-2020 10:45:00 11.8 C 84 % 9.19 C
995 23-05-2020 10:50:00 11.7 C 85 % 9.27 C
996 23-05-2020 10:55:00 11.6 C 88 % 9.68 C
997 23-05-2020 11:00:00 11.6 C 90 % 10.02 C
998 23-05-2020 11:05:00 11.6 C 91 % 10.18 C
999 23-05-2020 11:10:00 11.5 C 91 % 10.08 C
1000 23-05-2020 11:15:00 11.5 C 92 % 10.25 C
Sensor: Nr:Datum:Temp:Feuchte:Taupunkt:
Aussen-T/F 1001 23-05-2020 11:20:00 11.6 C 92 % 10.35 C
1002 23-05-2020 11:25:00 11.8 C 93 % 10.71 C
1003 23-05-2020 11:30:00 11.9 C 93 % 10.81 C
1004 23-05-2020 11:35:00 12.1 C 92 % 10.84 C
1005 23-05-2020 11:40:00 12.1 C 93 % 11 C
1006 23-05-2020 11:45:00 12.3 C 93 % 11.2 C
1007 23-05-2020 11:50:00 12.4 C 93 % 11.3 C
1008 23-05-2020 11:55:00 12.3 C 91 % 10.87 C
1009 23-05-2020 12:00:00 12.4 C 91 % 10.97 C
1010 23-05-2020 12:05:00 12.4 C 90 % 10.81 C
1011 23-05-2020 12:10:00 12.3 C 89 % 10.54 C
1012 23-05-2020 12:15:00 12.3 C 90 % 10.71 C
1013 23-05-2020 12:20:00 12.3 C 90 % 10.71 C
1014 23-05-2020 12:25:00 12.3 C 89 % 10.54 C
1015 23-05-2020 12:30:00 12.3 C 89 % 10.54 C
1016 23-05-2020 12:35:00 12.3 C 88 % 10.37 C
1017 23-05-2020 12:40:00 12.3 C 88 % 10.37 C
1018 23-05-2020 12:45:00 12.3 C 89 % 10.54 C
1019 23-05-2020 12:50:00 12.3 C 90 % 10.71 C
1020 23-05-2020 12:55:00 12.4 C 90 % 10.81 C
1021 23-05-2020 13:00:00 12.4 C 90 % 10.81 C
1022 23-05-2020 13:05:00 12.5 C 90 % 10.91 C
1023 23-05-2020 13:10:00 12.6 C 89 % 10.84 C
1024 23-05-2020 13:15:00 12.7 C 89 % 10.94 C
1025 23-05-2020 13:20:00 12.8 C 88 % 10.86 C
Sensor: Nr:Datum:Temp:Feuchte:Taupunkt:
Aussen-T/F 1026 23-05-2020 13:25:00 12.9 C 87 % 10.79 C
1027 23-05-2020 13:30:00 13 C 87 % 10.89 C
1028 23-05-2020 13:35:00 12.9 C 85 % 10.44 C
1029 23-05-2020 13:40:00 13.1 C 86 % 10.81 C
1030 23-05-2020 13:45:00 13.3 C 87 % 11.18 C
1031 23-05-2020 13:50:00 13.4 C 87 % 11.28 C
1032 23-05-2020 13:55:00 13.4 C 86 % 11.11 C
1033 23-05-2020 14:00:00 13.3 C 84 % 10.66 C
1034 23-05-2020 14:05:00 13.3 C 85 % 10.83 C
1035 23-05-2020 14:10:00 13.3 C 84 % 10.66 C
1036 23-05-2020 14:15:00 13.3 C 85 % 10.83 C
1037 23-05-2020 14:20:00 13.4 C 83 % 10.57 C
1038 23-05-2020 14:25:00 13.5 C 84 % 10.85 C
1039 23-05-2020 14:30:00 13.7 C 85 % 11.23 C
1040 23-05-2020 14:35:00 14 C 84 % 11.34 C
1041 23-05-2020 14:40:00 14.1 C 82 % 11.08 C
1042 23-05-2020 14:45:00 14.2 C 82 % 11.17 C
1043 23-05-2020 14:50:00 14.2 C 82 % 11.17 C
1044 23-05-2020 14:55:00 14.3 C 82 % 11.27 C
1045 23-05-2020 15:00:00 14.4 C 82 % 11.37 C
1046 23-05-2020 15:05:00 14.6 C 81 % 11.38 C
1047 23-05-2020 15:10:00 14.7 C 80 % 11.29 C
1048 23-05-2020 15:15:00 14.7 C 79 % 11.1 C
1049 23-05-2020 15:20:00 14.9 C 79 % 11.29 C
1050 23-05-2020 15:25:00 15 C 78 % 11.2 C
Sensor: Nr:Datum:Temp:Feuchte:Taupunkt:
Aussen-T/F 1051 23-05-2020 15:30:00 15 C 78 % 11.2 C
1052 23-05-2020 15:35:00 15 C 79 % 11.39 C
1053 23-05-2020 15:40:00 15.1 C 77 % 11.1 C
1054 23-05-2020 15:45:00 15.1 C 76 % 10.9 C
1055 23-05-2020 15:50:00 15.3 C 77 % 11.3 C
1056 23-05-2020 15:55:00 15.3 C 76 % 11.1 C
1057 23-05-2020 16:00:00 15.4 C 75 % 11 C
1058 23-05-2020 16:05:00 15.7 C 75 % 11.28 C
1059 23-05-2020 16:10:00 15.8 C 74 % 11.18 C
1060 23-05-2020 16:15:00 15.8 C 74 % 11.18 C
1061 23-05-2020 16:20:00 15.8 C 72 % 10.77 C
1062 23-05-2020 16:25:00 15.9 C 74 % 11.28 C
1063 23-05-2020 16:30:00 16 C 70 % 10.54 C
1064 23-05-2020 16:35:00 16.1 C 69 % 10.42 C
1065 23-05-2020 16:40:00 16.2 C 71 % 10.94 C
1066 23-05-2020 16:45:00 16.3 C 71 % 11.04 C
1067 23-05-2020 16:50:00 16.3 C 72 % 11.25 C
1068 23-05-2020 16:55:00 16.2 C 71 % 10.94 C
1069 23-05-2020 17:00:00 16.2 C 70 % 10.73 C
1070 23-05-2020 17:05:00 16.1 C 72 % 11.06 C
1071 23-05-2020 17:10:00 15.8 C 73 % 10.97 C
1072 23-05-2020 17:15:00 15.8 C 73 % 10.97 C
1073 23-05-2020 17:20:00 15.8 C 73 % 10.97 C
1074 23-05-2020 17:25:00 15.7 C 74 % 11.08 C
1075 23-05-2020 17:30:00 15.4 C 74 % 10.79 C
Sensor: Nr:Datum:Temp:Feuchte:Taupunkt:
Aussen-T/F 1076 23-05-2020 17:35:00 15.4 C 77 % 11.39 C
1077 23-05-2020 17:40:00 15.4 C 79 % 11.78 C
1078 23-05-2020 17:45:00 15.6 C 77 % 11.59 C
1079 23-05-2020 17:50:00 16 C 77 % 11.97 C
1080 23-05-2020 17:55:00 16.6 C 76 % 12.36 C
1081 23-05-2020 18:00:00 16.7 C 72 % 11.63 C
1082 23-05-2020 18:05:00 16.8 C 73 % 11.94 C
1083 23-05-2020 18:10:00 16.9 C 72 % 11.82 C
1084 23-05-2020 18:15:00 16.9 C 72 % 11.82 C
1085 23-05-2020 18:20:00 16.4 C 71 % 11.13 C
1086 23-05-2020 18:25:00 15.9 C 72 % 10.86 C
1087 23-05-2020 18:30:00 15.6 C 74 % 10.99 C
1088 23-05-2020 18:35:00 15.3 C 76 % 11.1 C
1089 23-05-2020 18:40:00 15.2 C 80 % 11.78 C
1090 23-05-2020 18:45:00 15.2 C 82 % 12.15 C
1091 23-05-2020 18:50:00 15.1 C 79 % 11.49 C
1092 23-05-2020 18:55:00 15.1 C 78 % 11.3 C
1093 23-05-2020 19:00:00 15.7 C 76 % 11.48 C
1094 23-05-2020 19:05:00 15.9 C 74 % 11.28 C
1095 23-05-2020 19:10:00 16.2 C 74 % 11.56 C
1096 23-05-2020 19:15:00 16.1 C 74 % 11.47 C
1097 23-05-2020 19:20:00 15.6 C 73 % 10.78 C
1098 23-05-2020 19:25:00 15.2 C 76 % 11 C
1099 23-05-2020 19:30:00 15 C 76 % 10.81 C
1100 23-05-2020 19:35:00 15 C 78 % 11.2 C
Sensor: Nr:Datum:Temp:Feuchte:Taupunkt:
Aussen-T/F 1101 23-05-2020 19:40:00 15 C 77 % 11 C
1102 23-05-2020 19:45:00 14.9 C 77 % 10.91 C
1103 23-05-2020 19:50:00 15.1 C 77 % 11.1 C
1104 23-05-2020 19:55:00 15.2 C 77 % 11.2 C
1105 23-05-2020 20:00:00 15.3 C 76 % 11.1 C
1106 23-05-2020 20:05:00 15.2 C 76 % 11 C
1107 23-05-2020 20:10:00 15 C 76 % 10.81 C
1108 23-05-2020 20:15:00 14.8 C 77 % 10.81 C
1109 23-05-2020 20:20:00 14.8 C 79 % 11.2 C
1110 23-05-2020 20:25:00 14.7 C 78 % 10.91 C
1111 23-05-2020 20:30:00 14.6 C 79 % 11 C
1112 23-05-2020 20:35:00 14.6 C 79 % 11 C
1113 23-05-2020 20:40:00 14.4 C 79 % 10.81 C
1114 23-05-2020 20:45:00 14.3 C 79 % 10.71 C
1115 23-05-2020 20:50:00 14.2 C 79 % 10.61 C
1116 23-05-2020 20:55:00 14.1 C 80 % 10.71 C
1117 23-05-2020 21:00:00 13.9 C 80 % 10.51 C
1118 23-05-2020 21:05:00 13.8 C 80 % 10.41 C
1119 23-05-2020 21:10:00 13.7 C 81 % 10.5 C
1120 23-05-2020 21:15:00 13.5 C 82 % 10.49 C
1121 23-05-2020 21:20:00 13.3 C 81 % 10.11 C
1122 23-05-2020 21:25:00 13.2 C 81 % 10.01 C
1123 23-05-2020 21:30:00 13.2 C 81 % 10.01 C
1124 23-05-2020 21:35:00 13.1 C 81 % 9.92 C
1125 23-05-2020 21:40:00 13 C 81 % 9.82 C
Sensor: Nr:Datum:Temp:Feuchte:Taupunkt:
Aussen-T/F 1126 23-05-2020 21:45:00 12.9 C 82 % 9.9 C
1127 23-05-2020 21:50:00 12.7 C 82 % 9.71 C
1128 23-05-2020 21:55:00 12.6 C 83 % 9.79 C
1129 23-05-2020 22:00:00 12.3 C 83 % 9.5 C
1130 23-05-2020 22:05:00 12.3 C 83 % 9.5 C
1131 23-05-2020 22:10:00 12.2 C 84 % 9.58 C
1132 23-05-2020 22:15:00 12.2 C 84 % 9.58 C
1133 23-05-2020 22:20:00 12.1 C 84 % 9.48 C
1134 23-05-2020 22:25:00 12 C 84 % 9.38 C
1135 23-05-2020 22:30:00 11.9 C 85 % 9.46 C
1136 23-05-2020 22:35:00 11.8 C 85 % 9.36 C
1137 23-05-2020 22:40:00 11.7 C 85 % 9.27 C
1138 23-05-2020 22:45:00 11.6 C 86 % 9.34 C
1139 23-05-2020 22:50:00 11.5 C 86 % 9.24 C
1140 23-05-2020 22:55:00 11.4 C 86 % 9.14 C
1141 23-05-2020 23:00:00 11.3 C 86 % 9.05 C
1142 23-05-2020 23:05:00 11.3 C 86 % 9.05 C
1143 23-05-2020 23:10:00 11.3 C 87 % 9.22 C
1144 23-05-2020 23:15:00 11.2 C 87 % 9.12 C
1145 23-05-2020 23:20:00 11.2 C 87 % 9.12 C
1146 23-05-2020 23:25:00 11.1 C 87 % 9.02 C
1147 23-05-2020 23:30:00 10.9 C 88 % 8.99 C
1148 23-05-2020 23:35:00 10.9 C 88 % 8.99 C
1149 23-05-2020 23:40:00 10.9 C 88 % 8.99 C
1150 23-05-2020 23:45:00 10.9 C 88 % 8.99 C
Sensor: Nr:Datum:Temp:Feuchte:Taupunkt:
Aussen-T/F 1151 23-05-2020 23:50:00 10.8 C 88 % 8.89 C
1152 23-05-2020 23:55:00 10.8 C 89 % 9.06 C
1153 24-05-2020 00:00:00 10.7 C 89 % 8.96 C
1154 24-05-2020 00:05:00 10.7 C 89 % 8.96 C
1155 24-05-2020 00:10:00 10.6 C 89 % 8.86 C
1156 24-05-2020 00:15:00 10.6 C 89 % 8.86 C
1157 24-05-2020 00:20:00 10.5 C 89 % 8.77 C
1158 24-05-2020 00:25:00 10.5 C 89 % 8.77 C
1159 24-05-2020 00:30:00 10.5 C 89 % 8.77 C
1160 24-05-2020 00:35:00 10.4 C 89 % 8.67 C
1161 24-05-2020 00:40:00 10.3 C 89 % 8.57 C
1162 24-05-2020 00:45:00 10.3 C 89 % 8.57 C
1163 24-05-2020 00:50:00 10.4 C 89 % 8.67 C
1164 24-05-2020 00:55:00 10.3 C 89 % 8.57 C
1165 24-05-2020 01:00:00 10.3 C 89 % 8.57 C
1166 24-05-2020 01:05:00 10.3 C 89 % 8.57 C
1167 24-05-2020 01:10:00 10.2 C 89 % 8.47 C
1168 24-05-2020 01:15:00 10.2 C 88 % 8.3 C
1169 24-05-2020 01:20:00 10.2 C 88 % 8.3 C
1170 24-05-2020 01:25:00 10.2 C 88 % 8.3 C
1171 24-05-2020 01:30:00 10.2 C 87 % 8.14 C
1172 24-05-2020 01:35:00 10.1 C 87 % 8.04 C
1173 24-05-2020 01:40:00 10.1 C 87 % 8.04 C
1174 24-05-2020 01:45:00 10 C 87 % 7.94 C
1175 24-05-2020 01:50:00 9.9 C 87 % 7.84 C
Sensor: Nr:Datum:Temp:Feuchte:Taupunkt:
Aussen-T/F 1176 24-05-2020 01:55:00 9.9 C 87 % 7.84 C
1177 24-05-2020 02:00:00 9.8 C 86 % 7.57 C
1178 24-05-2020 02:05:00 9.8 C 86 % 7.57 C
1179 24-05-2020 02:10:00 9.9 C 85 % 7.5 C
1180 24-05-2020 02:15:00 10.1 C 84 % 7.52 C
1181 24-05-2020 02:20:00 10.2 C 83 % 7.45 C
1182 24-05-2020 02:25:00 10.2 C 82 % 7.27 C
1183 24-05-2020 02:30:00 10.3 C 82 % 7.37 C
1184 24-05-2020 02:35:00 10.3 C 81 % 7.19 C
1185 24-05-2020 02:40:00 10.4 C 81 % 7.28 C
1186 24-05-2020 02:45:00 10.4 C 81 % 7.28 C
1187 24-05-2020 02:50:00 10.4 C 81 % 7.28 C
1188 24-05-2020 02:55:00 10.4 C 81 % 7.28 C
1189 24-05-2020 03:00:00 10.4 C 81 % 7.28 C
1190 24-05-2020 03:05:00 10.4 C 82 % 7.46 C
1191 24-05-2020 03:10:00 10.4 C 82 % 7.46 C
1192 24-05-2020 03:15:00 10.3 C 81 % 7.19 C
1193 24-05-2020 03:20:00 10.3 C 81 % 7.19 C
1194 24-05-2020 03:25:00 10.4 C 80 % 7.1 C
1195 24-05-2020 03:30:00 10.4 C 80 % 7.1 C
1196 24-05-2020 03:35:00 10.6 C 80 % 7.3 C
1197 24-05-2020 03:40:00 10.6 C 80 % 7.3 C
1198 24-05-2020 03:45:00 10.6 C 79 % 7.11 C
1199 24-05-2020 03:50:00 10.6 C 79 % 7.11 C
1200 24-05-2020 03:55:00 10.6 C 79 % 7.11 C
Sensor: Nr:Datum:Temp:Feuchte:Taupunkt:
Aussen-T/F 1201 24-05-2020 04:00:00 10.6 C 79 % 7.11 C
1202 24-05-2020 04:05:00 10.5 C 79 % 7.02 C
1203 24-05-2020 04:10:00 10.4 C 79 % 6.92 C
1204 24-05-2020 04:15:00 10.3 C 79 % 6.82 C
1205 24-05-2020 04:20:00 10.3 C 79 % 6.82 C
1206 24-05-2020 04:25:00 10.3 C 79 % 6.82 C
1207 24-05-2020 04:30:00 10.3 C 79 % 6.82 C
1208 24-05-2020 04:35:00 10.2 C 80 % 6.91 C
1209 24-05-2020 04:40:00 10.2 C 80 % 6.91 C
1210 24-05-2020 04:45:00 10.2 C 80 % 6.91 C
1211 24-05-2020 04:50:00 10.2 C 80 % 6.91 C
1212 24-05-2020 04:55:00 10.2 C 79 % 6.73 C
1213 24-05-2020 05:00:00 10.2 C 80 % 6.91 C
1214 24-05-2020 05:05:00 10.2 C 79 % 6.73 C
1215 24-05-2020 05:10:00 10.2 C 79 % 6.73 C
1216 24-05-2020 05:15:00 10.2 C 80 % 6.91 C
1217 24-05-2020 05:20:00 10.2 C 80 % 6.91 C
1218 24-05-2020 05:25:00 10.2 C 80 % 6.91 C
1219 24-05-2020 05:30:00 10.2 C 80 % 6.91 C
1220 24-05-2020 05:35:00 10.2 C 80 % 6.91 C
1221 24-05-2020 05:40:00 10.2 C 80 % 6.91 C
1222 24-05-2020 05:45:00 10.2 C 80 % 6.91 C
1223 24-05-2020 05:50:00 10.3 C 79 % 6.82 C
1224 24-05-2020 05:55:00 10.3 C 80 % 7.01 C
1225 24-05-2020 06:00:00 10.3 C 80 % 7.01 C
Sensor: Nr:Datum:Temp:Feuchte:Taupunkt:
Aussen-T/F 1226 24-05-2020 06:05:00 10.3 C 80 % 7.01 C
1227 24-05-2020 06:10:00 10.2 C 80 % 6.91 C
1228 24-05-2020 06:15:00 10.2 C 80 % 6.91 C
1229 24-05-2020 06:20:00 10.2 C 81 % 7.09 C
1230 24-05-2020 06:25:00 10.3 C 81 % 7.19 C
1231 24-05-2020 06:30:00 10.3 C 82 % 7.37 C
1232 24-05-2020 06:35:00 10.3 C 82 % 7.37 C
1233 24-05-2020 06:40:00 10.3 C 82 % 7.37 C
1234 24-05-2020 06:45:00 10.3 C 82 % 7.37 C
1235 24-05-2020 06:50:00 10.2 C 82 % 7.27 C
1236 24-05-2020 06:55:00 10.2 C 83 % 7.45 C
1237 24-05-2020 07:00:00 10.2 C 82 % 7.27 C
1238 24-05-2020 07:05:00 10.3 C 82 % 7.37 C
1239 24-05-2020 07:10:00 10.3 C 83 % 7.54 C
1240 24-05-2020 07:15:00 10.2 C 82 % 7.27 C
1241 24-05-2020 07:20:00 10.3 C 82 % 7.37 C
1242 24-05-2020 07:25:00 10.3 C 82 % 7.37 C
1243 24-05-2020 07:30:00 10.2 C 82 % 7.27 C
1244 24-05-2020 07:35:00 10.2 C 82 % 7.27 C
1245 24-05-2020 07:40:00 10.3 C 82 % 7.37 C
1246 24-05-2020 07:45:00 10.3 C 82 % 7.37 C
1247 24-05-2020 07:50:00 10.4 C 82 % 7.46 C
1248 24-05-2020 07:55:00 10.6 C 82 % 7.66 C
1249 24-05-2020 08:00:00 10.7 C 82 % 7.76 C
1250 24-05-2020 08:05:00 10.7 C 82 % 7.76 C
Sensor: Nr:Datum:Temp:Feuchte:Taupunkt:
Aussen-T/F 1251 24-05-2020 08:10:00 10.8 C 82 % 7.85 C
1252 24-05-2020 08:15:00 10.9 C 82 % 7.95 C
1253 24-05-2020 08:20:00 11 C 81 % 7.87 C
1254 24-05-2020 08:25:00 11.1 C 81 % 7.97 C
1255 24-05-2020 08:30:00 11.2 C 81 % 8.06 C
1256 24-05-2020 08:35:00 11.3 C 80 % 7.98 C
1257 24-05-2020 08:40:00 11.3 C 80 % 7.98 C
1258 24-05-2020 08:45:00 11.4 C 79 % 7.89 C
1259 24-05-2020 08:50:00 11.6 C 80 % 8.27 C
1260 24-05-2020 08:55:00 11.7 C 79 % 8.18 C
1261 24-05-2020 09:00:00 11.8 C 79 % 8.28 C
1262 24-05-2020 09:05:00 12.1 C 78 % 8.38 C
1263 24-05-2020 09:10:00 12.2 C 78 % 8.48 C
1264 24-05-2020 09:15:00 12.3 C 78 % 8.58 C
1265 24-05-2020 09:20:00 12.4 C 77 % 8.49 C
1266 24-05-2020 09:25:00 12.6 C 77 % 8.68 C
1267 24-05-2020 09:30:00 12.8 C 76 % 8.68 C
1268 24-05-2020 09:35:00 12.9 C 77 % 8.97 C
1269 24-05-2020 09:40:00 13.2 C 76 % 9.07 C
1270 24-05-2020 09:45:00 13.3 C 76 % 9.16 C
1271 24-05-2020 09:50:00 13.6 C 75 % 9.26 C
1272 24-05-2020 09:55:00 13.7 C 75 % 9.35 C
1273 24-05-2020 10:00:00 13.8 C 74 % 9.25 C
1274 24-05-2020 10:05:00 14.2 C 73 % 9.43 C
1275 24-05-2020 10:10:00 14.2 C 72 % 9.23 C
Sensor: Nr:Datum:Temp:Feuchte:Taupunkt:
Aussen-T/F 1276 24-05-2020 10:15:00 14.2 C 73 % 9.43 C
1277 24-05-2020 10:20:00 14.2 C 73 % 9.43 C
1278 24-05-2020 10:25:00 14.3 C 74 % 9.73 C
1279 24-05-2020 10:30:00 14.4 C 74 % 9.83 C
1280 24-05-2020 10:35:00 14.5 C 72 % 9.52 C
1281 24-05-2020 10:40:00 14.5 C 71 % 9.31 C
1282 24-05-2020 10:45:00 14.7 C 70 % 9.29 C
1283 24-05-2020 10:50:00 14.9 C 67 % 8.83 C
1284 24-05-2020 10:55:00 15.1 C 66 % 8.8 C
1285 24-05-2020 11:00:00 15.1 C 65 % 8.58 C
1286 24-05-2020 11:05:00 15.2 C 63 % 8.21 C
1287 24-05-2020 11:10:00 15.2 C 62 % 7.98 C
1288 24-05-2020 11:15:00 15.2 C 63 % 8.21 C
1289 24-05-2020 11:20:00 15.2 C 63 % 8.21 C
1290 24-05-2020 11:25:00 15.3 C 63 % 8.31 C
1291 24-05-2020 11:30:00 15.5 C 63 % 8.49 C
1292 24-05-2020 11:35:00 15.7 C 62 % 8.45 C
1293 24-05-2020 11:40:00 15.9 C 60 % 8.15 C
1294 24-05-2020 11:45:00 15.9 C 59 % 7.91 C
1295 24-05-2020 11:50:00 16.1 C 60 % 8.34 C
1296 24-05-2020 11:55:00 16.3 C 58 % 8.03 C
1297 24-05-2020 12:00:00 16.4 C 56 % 7.61 C
1298 24-05-2020 12:05:00 16.6 C 57 % 8.06 C
1299 24-05-2020 12:10:00 16.5 C 59 % 8.47 C
1300 24-05-2020 12:15:00 16.5 C 58 % 8.22 C
Sensor: Nr:Datum:Temp:Feuchte:Taupunkt:
Aussen-T/F 1301 24-05-2020 12:20:00 16.5 C 58 % 8.22 C
1302 24-05-2020 12:25:00 16.7 C 58 % 8.4 C
1303 24-05-2020 12:30:00 16.8 C 55 % 7.72 C
1304 24-05-2020 12:35:00 16.9 C 56 % 8.07 C
1305 24-05-2020 12:40:00 17.1 C 54 % 7.73 C
1306 24-05-2020 12:45:00 17.2 C 54 % 7.82 C
1307 24-05-2020 12:50:00 17.4 C 53 % 7.73 C
1308 24-05-2020 12:55:00 17.4 C 54 % 8.01 C
1309 24-05-2020 13:00:00 17.4 C 54 % 8.01 C
1310 24-05-2020 13:05:00 17.4 C 55 % 8.28 C
1311 24-05-2020 13:10:00 17.3 C 52 % 7.36 C
1312 24-05-2020 13:15:00 17.3 C 53 % 7.64 C
1313 24-05-2020 13:20:00 17.4 C 55 % 8.28 C
1314 24-05-2020 13:25:00 17.6 C 53 % 7.92 C
1315 24-05-2020 13:30:00 17.7 C 55 % 8.55 C
1316 24-05-2020 13:35:00 17.8 C 54 % 8.38 C
1317 24-05-2020 13:40:00 17.7 C 53 % 8.01 C
1318 24-05-2020 13:45:00 17.7 C 54 % 8.28 C
1319 24-05-2020 13:50:00 17.7 C 55 % 8.55 C
1320 24-05-2020 13:55:00 17.5 C 54 % 8.1 C
1321 24-05-2020 14:00:00 17.3 C 55 % 8.18 C
1322 24-05-2020 14:05:00 17.2 C 55 % 8.09 C
1323 24-05-2020 14:10:00 17.1 C 57 % 8.52 C
1324 24-05-2020 14:15:00 17 C 56 % 8.17 C
1325 24-05-2020 14:20:00 16.9 C 56 % 8.07 C
Sensor: Nr:Datum:Temp:Feuchte:Taupunkt:
Aussen-T/F 1326 24-05-2020 14:25:00 16.9 C 57 % 8.34 C
1327 24-05-2020 14:30:00 16.9 C 56 % 8.07 C
1328 24-05-2020 14:35:00 16.9 C 56 % 8.07 C
1329 24-05-2020 14:40:00 16.9 C 57 % 8.34 C
1330 24-05-2020 14:45:00 17 C 57 % 8.43 C
1331 24-05-2020 14:50:00 17 C 57 % 8.43 C
1332 24-05-2020 14:55:00 17 C 57 % 8.43 C
1333 24-05-2020 15:00:00 17.1 C 57 % 8.52 C
1334 24-05-2020 15:05:00 17.1 C 57 % 8.52 C
1335 24-05-2020 15:10:00 17.1 C 58 % 8.78 C
1336 24-05-2020 15:15:00 17.1 C 57 % 8.52 C
1337 24-05-2020 15:20:00 17 C 57 % 8.43 C
1338 24-05-2020 15:25:00 16.9 C 58 % 8.59 C
1339 24-05-2020 15:30:00 16.8 C 59 % 8.75 C
1340 24-05-2020 15:35:00 16.8 C 60 % 9 C
1341 24-05-2020 15:40:00 16.7 C 60 % 8.9 C
1342 24-05-2020 15:45:00 16.7 C 61 % 9.15 C
1343 24-05-2020 15:50:00 16.7 C 61 % 9.15 C
1344 24-05-2020 15:55:00 16.7 C 61 % 9.15 C
1345 24-05-2020 16:00:00 16.8 C 60 % 9 C
1346 24-05-2020 16:05:00 16.8 C 63 % 9.72 C
1347 24-05-2020 16:10:00 16.8 C 63 % 9.72 C
1348 24-05-2020 16:15:00 16.7 C 63 % 9.63 C
1349 24-05-2020 16:20:00 16.6 C 62 % 9.3 C
1350 24-05-2020 16:25:00 16.6 C 61 % 9.06 C
Sensor: Nr:Datum:Temp:Feuchte:Taupunkt:
Aussen-T/F 1351 24-05-2020 16:30:00 16.6 C 62 % 9.3 C
1352 24-05-2020 16:35:00 16.6 C 63 % 9.53 C
1353 24-05-2020 16:40:00 16.6 C 63 % 9.53 C
1354 24-05-2020 16:45:00 16.6 C 63 % 9.53 C
1355 24-05-2020 16:50:00 16.6 C 63 % 9.53 C
1356 24-05-2020 16:55:00 16.6 C 63 % 9.53 C
1357 24-05-2020 17:00:00 16.7 C 63 % 9.63 C
1358 24-05-2020 17:05:00 16.7 C 63 % 9.63 C
1359 24-05-2020 17:10:00 16.7 C 63 % 9.63 C
1360 24-05-2020 17:15:00 16.7 C 64 % 9.86 C
1361 24-05-2020 17:20:00 16.7 C 65 % 10.09 C
1362 24-05-2020 17:25:00 16.6 C 64 % 9.77 C
1363 24-05-2020 17:30:00 16.6 C 65 % 10 C
1364 24-05-2020 17:35:00 16.6 C 66 % 10.23 C
1365 24-05-2020 17:40:00 16.6 C 65 % 10 C
1366 24-05-2020 17:45:00 16.6 C 65 % 10 C
1367 24-05-2020 17:50:00 16.6 C 66 % 10.23 C
1368 24-05-2020 17:55:00 16.6 C 66 % 10.23 C
1369 24-05-2020 18:00:00 16.6 C 66 % 10.23 C
1370 24-05-2020 18:05:00 16.6 C 66 % 10.23 C
1371 24-05-2020 18:10:00 16.6 C 65 % 10 C
1372 24-05-2020 18:15:00 16.6 C 65 % 10 C
1373 24-05-2020 18:20:00 16.6 C 66 % 10.23 C
1374 24-05-2020 18:25:00 16.6 C 67 % 10.45 C
1375 24-05-2020 18:30:00 16.4 C 68 % 10.48 C
Sensor: Nr:Datum:Temp:Feuchte:Taupunkt:
Aussen-T/F 1376 24-05-2020 18:35:00 16.1 C 71 % 10.84 C
1377 24-05-2020 18:40:00 15.7 C 74 % 11.08 C
1378 24-05-2020 18:45:00 15.4 C 78 % 11.59 C
1379 24-05-2020 18:50:00 15.3 C 80 % 11.87 C
1380 24-05-2020 18:55:00 15.2 C 81 % 11.96 C
1381 24-05-2020 19:00:00 15.1 C 81 % 11.87 C
1382 24-05-2020 19:05:00 14.9 C 82 % 11.86 C
1383 24-05-2020 19:10:00 14.8 C 83 % 11.94 C
1384 24-05-2020 19:15:00 14.7 C 83 % 11.85 C
1385 24-05-2020 19:20:00 14.6 C 84 % 11.93 C
1386 24-05-2020 19:25:00 14.4 C 84 % 11.73 C
1387 24-05-2020 19:30:00 14.3 C 84 % 11.64 C
1388 24-05-2020 19:35:00 14.3 C 85 % 11.81 C
1389 24-05-2020 19:40:00 14.3 C 85 % 11.81 C
1390 24-05-2020 19:45:00 14.3 C 85 % 11.81 C
1391 24-05-2020 19:50:00 14.2 C 86 % 11.89 C
1392 24-05-2020 19:55:00 14.2 C 86 % 11.89 C
1393 24-05-2020 20:00:00 14.2 C 86 % 11.89 C
1394 24-05-2020 20:05:00 14.1 C 86 % 11.8 C
1395 24-05-2020 20:10:00 14.1 C 86 % 11.8 C
1396 24-05-2020 20:15:00 14.1 C 86 % 11.8 C
1397 24-05-2020 20:20:00 14.2 C 85 % 11.72 C
1398 24-05-2020 20:25:00 14.6 C 83 % 11.75 C
1399 24-05-2020 20:30:00 15 C 81 % 11.77 C
1400 24-05-2020 20:35:00 15.3 C 78 % 11.49 C
Sensor: Nr:Datum:Temp:Feuchte:Taupunkt:
Aussen-T/F 1401 24-05-2020 20:40:00 15.4 C 78 % 11.59 C
1402 24-05-2020 20:45:00 15.4 C 78 % 11.59 C
1403 24-05-2020 20:50:00 15.3 C 78 % 11.49 C
1404 24-05-2020 20:55:00 15.3 C 77 % 11.3 C
1405 24-05-2020 21:00:00 15.3 C 79 % 11.68 C
1406 24-05-2020 21:05:00 15.2 C 79 % 11.59 C
1407 24-05-2020 21:10:00 15.1 C 80 % 11.68 C
1408 24-05-2020 21:15:00 14.9 C 80 % 11.48 C
1409 24-05-2020 21:20:00 14.7 C 81 % 11.48 C
1410 24-05-2020 21:25:00 14.6 C 81 % 11.38 C
1411 24-05-2020 21:30:00 14.4 C 81 % 11.18 C
1412 24-05-2020 21:35:00 14.4 C 82 % 11.37 C
1413 24-05-2020 21:40:00 14.4 C 82 % 11.37 C
1414 24-05-2020 21:45:00 14.3 C 82 % 11.27 C
1415 24-05-2020 21:50:00 14.3 C 82 % 11.27 C
1416 24-05-2020 21:55:00 14.3 C 83 % 11.45 C
1417 24-05-2020 22:00:00 14.3 C 83 % 11.45 C
1418 24-05-2020 22:05:00 14.2 C 83 % 11.36 C
1419 24-05-2020 22:10:00 14.2 C 83 % 11.36 C
1420 24-05-2020 22:15:00 14.2 C 83 % 11.36 C
1421 24-05-2020 22:20:00 14.2 C 83 % 11.36 C
1422 24-05-2020 22:25:00 14.1 C 83 % 11.26 C
1423 24-05-2020 22:30:00 14.1 C 84 % 11.44 C
1424 24-05-2020 22:35:00 14.1 C 84 % 11.44 C
1425 24-05-2020 22:40:00 14.1 C 84 % 11.44 C
Sensor: Nr:Datum:Temp:Feuchte:Taupunkt:
Aussen-T/F 1426 24-05-2020 22:45:00 14.1 C 84 % 11.44 C
1427 24-05-2020 22:50:00 14 C 84 % 11.34 C
1428 24-05-2020 22:55:00 14 C 84 % 11.34 C
1429 24-05-2020 23:00:00 14 C 84 % 11.34 C
1430 24-05-2020 23:05:00 14.1 C 84 % 11.44 C
1431 24-05-2020 23:10:00 14.1 C 83 % 11.26 C
1432 24-05-2020 23:15:00 14.1 C 84 % 11.44 C
1433 24-05-2020 23:20:00 14.2 C 84 % 11.54 C
1434 24-05-2020 23:25:00 14.2 C 84 % 11.54 C
1435 24-05-2020 23:30:00 14.1 C 84 % 11.44 C
1436 24-05-2020 23:35:00 14.1 C 83 % 11.26 C
1437 24-05-2020 23:40:00 14.1 C 83 % 11.26 C
1438 24-05-2020 23:45:00 14.1 C 84 % 11.44 C
1439 24-05-2020 23:50:00 14 C 84 % 11.34 C
1440 24-05-2020 23:55:00 13.9 C 84 % 11.24 C
1441 25-05-2020 00:00:00 13.9 C 85 % 11.42 C
1442 25-05-2020 00:05:00 13.8 C 85 % 11.32 C
1443 25-05-2020 00:10:00 13.7 C 86 % 11.4 C
1444 25-05-2020 00:15:00 13.7 C 86 % 11.4 C
1445 25-05-2020 00:20:00 13.6 C 86 % 11.3 C
1446 25-05-2020 00:25:00 13.5 C 86 % 11.21 C
1447 25-05-2020 00:30:00 13.5 C 87 % 11.38 C
1448 25-05-2020 00:35:00 13.4 C 87 % 11.28 C
1449 25-05-2020 00:40:00 13.4 C 87 % 11.28 C
1450 25-05-2020 00:45:00 13.3 C 88 % 11.36 C
Sensor: Nr:Datum:Temp:Feuchte:Taupunkt:
Aussen-T/F 1451 25-05-2020 00:50:00 13.3 C 88 % 11.36 C
1452 25-05-2020 00:55:00 13.2 C 88 % 11.26 C
1453 25-05-2020 01:00:00 13.2 C 88 % 11.26 C
1454 25-05-2020 01:05:00 13.2 C 88 % 11.26 C
1455 25-05-2020 01:10:00 13.1 C 88 % 11.16 C
1456 25-05-2020 01:15:00 13.1 C 88 % 11.16 C
1457 25-05-2020 01:20:00 13 C 88 % 11.06 C
1458 25-05-2020 01:25:00 13 C 89 % 11.23 C
1459 25-05-2020 01:30:00 12.9 C 89 % 11.13 C
1460 25-05-2020 01:35:00 12.9 C 89 % 11.13 C
1461 25-05-2020 01:40:00 12.9 C 89 % 11.13 C
1462 25-05-2020 01:45:00 12.9 C 89 % 11.13 C
1463 25-05-2020 01:50:00 12.9 C 89 % 11.13 C
1464 25-05-2020 01:55:00 12.9 C 89 % 11.13 C
1465 25-05-2020 02:00:00 12.9 C 89 % 11.13 C
1466 25-05-2020 02:05:00 12.9 C 89 % 11.13 C
1467 25-05-2020 02:10:00 12.9 C 89 % 11.13 C
1468 25-05-2020 02:15:00 12.9 C 89 % 11.13 C
1469 25-05-2020 02:20:00 12.9 C 89 % 11.13 C
1470 25-05-2020 02:25:00 12.9 C 89 % 11.13 C
1471 25-05-2020 02:30:00 12.9 C 89 % 11.13 C
1472 25-05-2020 02:35:00 12.9 C 89 % 11.13 C
1473 25-05-2020 02:40:00 12.9 C 89 % 11.13 C
1474 25-05-2020 02:45:00 13 C 89 % 11.23 C
1475 25-05-2020 02:50:00 13 C 89 % 11.23 C
Sensor: Nr:Datum:Temp:Feuchte:Taupunkt:
Aussen-T/F 1476 25-05-2020 02:55:00 13.1 C 89 % 11.33 C
1477 25-05-2020 03:00:00 13.1 C 89 % 11.33 C
1478 25-05-2020 03:05:00 13.1 C 89 % 11.33 C
1479 25-05-2020 03:10:00 13.1 C 88 % 11.16 C
1480 25-05-2020 03:15:00 13.2 C 88 % 11.26 C
1481 25-05-2020 03:20:00 13.2 C 88 % 11.26 C
1482 25-05-2020 03:25:00 13.3 C 88 % 11.36 C
1483 25-05-2020 03:30:00 13.3 C 87 % 11.18 C
1484 25-05-2020 03:35:00 13.4 C 87 % 11.28 C
1485 25-05-2020 03:40:00 13.4 C 87 % 11.28 C
1486 25-05-2020 03:45:00 13.4 C 87 % 11.28 C
1487 25-05-2020 03:50:00 13.4 C 87 % 11.28 C
1488 25-05-2020 03:55:00 13.4 C 87 % 11.28 C
1489 25-05-2020 04:00:00 13.4 C 87 % 11.28 C
1490 25-05-2020 04:05:00 13.3 C 87 % 11.18 C
1491 25-05-2020 04:10:00 13.3 C 87 % 11.18 C
1492 25-05-2020 04:15:00 13.3 C 87 % 11.18 C
1493 25-05-2020 04:20:00 13.3 C 87 % 11.18 C
1494 25-05-2020 04:25:00 13.3 C 87 % 11.18 C
1495 25-05-2020 04:30:00 13.3 C 88 % 11.36 C
1496 25-05-2020 04:35:00 13.3 C 87 % 11.18 C
1497 25-05-2020 04:40:00 13.3 C 87 % 11.18 C
1498 25-05-2020 04:45:00 13.3 C 87 % 11.18 C
1499 25-05-2020 04:50:00 13.3 C 87 % 11.18 C
1500 25-05-2020 04:55:00 13.3 C 87 % 11.18 C
Sensor: Nr:Datum:Temp:Feuchte:Taupunkt:
Aussen-T/F 1501 25-05-2020 05:00:00 13.3 C 87 % 11.18 C
1502 25-05-2020 05:05:00 13.3 C 88 % 11.36 C
1503 25-05-2020 05:10:00 13.3 C 87 % 11.18 C
1504 25-05-2020 05:15:00 13.3 C 88 % 11.36 C
1505 25-05-2020 05:20:00 13.2 C 87 % 11.09 C
1506 25-05-2020 05:25:00 13.3 C 88 % 11.36 C
1507 25-05-2020 05:30:00 13.2 C 88 % 11.26 C
1508 25-05-2020 05:35:00 13.2 C 87 % 11.09 C
1509 25-05-2020 05:40:00 13.2 C 88 % 11.26 C
1510 25-05-2020 05:45:00 13.2 C 87 % 11.09 C
1511 25-05-2020 05:50:00 13.2 C 87 % 11.09 C
1512 25-05-2020 05:55:00 13.2 C 87 % 11.09 C
1513 25-05-2020 06:00:00 13.2 C 88 % 11.26 C
1514 25-05-2020 06:05:00 13.2 C 88 % 11.26 C
1515 25-05-2020 06:10:00 13.2 C 88 % 11.26 C
1516 25-05-2020 06:15:00 13.2 C 88 % 11.26 C
1517 25-05-2020 06:20:00 13.3 C 88 % 11.36 C
1518 25-05-2020 06:25:00 13.3 C 88 % 11.36 C
1519 25-05-2020 06:30:00 13.3 C 88 % 11.36 C
1520 25-05-2020 06:35:00 13.3 C 88 % 11.36 C
1521 25-05-2020 06:40:00 13.3 C 88 % 11.36 C
1522 25-05-2020 06:45:00 13.4 C 87 % 11.28 C
1523 25-05-2020 06:50:00 13.4 C 88 % 11.45 C
1524 25-05-2020 06:55:00 13.5 C 88 % 11.55 C
1525 25-05-2020 07:00:00 13.5 C 88 % 11.55 C
Sensor: Nr:Datum:Temp:Feuchte:Taupunkt:
Aussen-T/F 1526 25-05-2020 07:05:00 13.6 C 88 % 11.65 C
1527 25-05-2020 07:10:00 13.6 C 88 % 11.65 C
1528 25-05-2020 07:15:00 13.6 C 88 % 11.65 C
1529 25-05-2020 07:20:00 13.7 C 88 % 11.75 C
1530 25-05-2020 07:25:00 13.7 C 87 % 11.58 C
1531 25-05-2020 07:30:00 13.8 C 87 % 11.68 C
1532 25-05-2020 07:35:00 13.8 C 86 % 11.5 C
1533 25-05-2020 07:40:00 13.9 C 85 % 11.42 C
1534 25-05-2020 07:45:00 14.1 C 85 % 11.62 C
1535 25-05-2020 07:50:00 14.1 C 85 % 11.62 C
1536 25-05-2020 07:55:00 14.2 C 84 % 11.54 C
1537 25-05-2020 08:00:00 14.2 C 84 % 11.54 C
1538 25-05-2020 08:05:00 14.3 C 84 % 11.64 C
1539 25-05-2020 08:10:00 14.4 C 85 % 11.91 C
1540 25-05-2020 08:15:00 14.5 C 84 % 11.83 C
1541 25-05-2020 08:20:00 14.6 C 84 % 11.93 C
1542 25-05-2020 08:25:00 14.7 C 84 % 12.03 C
1543 25-05-2020 08:30:00 14.8 C 83 % 11.94 C
1544 25-05-2020 08:35:00 14.8 C 82 % 11.76 C
1545 25-05-2020 08:40:00 14.9 C 82 % 11.86 C
1546 25-05-2020 08:45:00 14.9 C 81 % 11.67 C
1547 25-05-2020 08:50:00 15 C 81 % 11.77 C
1548 25-05-2020 08:55:00 15.1 C 81 % 11.87 C
1549 25-05-2020 09:00:00 15.1 C 81 % 11.87 C
1550 25-05-2020 09:05:00 15.2 C 81 % 11.96 C
Sensor: Nr:Datum:Temp:Feuchte:Taupunkt:
Aussen-T/F 1551 25-05-2020 09:10:00 15.3 C 81 % 12.06 C
1552 25-05-2020 09:15:00 15.4 C 80 % 11.97 C
1553 25-05-2020 09:20:00 15.4 C 80 % 11.97 C
1554 25-05-2020 09:25:00 15.5 C 79 % 11.88 C
1555 25-05-2020 09:30:00 15.5 C 79 % 11.88 C
1556 25-05-2020 09:35:00 15.5 C 79 % 11.88 C
1557 25-05-2020 09:40:00 15.5 C 80 % 12.07 C
1558 25-05-2020 09:45:00 15.6 C 80 % 12.16 C
1559 25-05-2020 09:50:00 15.7 C 80 % 12.26 C
1560 25-05-2020 09:55:00 15.7 C 79 % 12.07 C
1561 25-05-2020 10:00:00 15.8 C 79 % 12.17 C
1562 25-05-2020 10:05:00 15.8 C 79 % 12.17 C
1563 25-05-2020 10:10:00 15.8 C 78 % 11.97 C
1564 25-05-2020 10:15:00 15.8 C 77 % 11.78 C
1565 25-05-2020 10:20:00 15.8 C 78 % 11.97 C
1566 25-05-2020 10:25:00 15.8 C 79 % 12.17 C
1567 25-05-2020 10:30:00 15.9 C 77 % 11.88 C
1568 25-05-2020 10:35:00 15.9 C 77 % 11.88 C
1569 25-05-2020 10:40:00 16 C 77 % 11.97 C
1570 25-05-2020 10:45:00 16 C 77 % 11.97 C
1571 25-05-2020 10:50:00 16 C 77 % 11.97 C
1572 25-05-2020 10:55:00 16.1 C 76 % 11.87 C
1573 25-05-2020 11:00:00 16.2 C 76 % 11.97 C
1574 25-05-2020 11:05:00 16.2 C 77 % 12.17 C
1575 25-05-2020 11:10:00 16.2 C 76 % 11.97 C
Sensor: Nr:Datum:Temp:Feuchte:Taupunkt:
Aussen-T/F 1576 25-05-2020 11:15:00 16.3 C 76 % 12.07 C
1577 25-05-2020 11:20:00 16.3 C 75 % 11.86 C
1578 25-05-2020 11:25:00 16.3 C 76 % 12.07 C
1579 25-05-2020 11:30:00 16.4 C 76 % 12.16 C
1580 25-05-2020 11:35:00 16.6 C 75 % 12.15 C
1581 25-05-2020 11:40:00 16.7 C 74 % 12.05 C
1582 25-05-2020 11:45:00 16.8 C 74 % 12.14 C
1583 25-05-2020 11:50:00 16.9 C 74 % 12.24 C
1584 25-05-2020 11:55:00 16.9 C 73 % 12.03 C
1585 25-05-2020 12:00:00 16.8 C 73 % 11.94 C
1586 25-05-2020 12:05:00 16.8 C 73 % 11.94 C
1587 25-05-2020 12:10:00 16.7 C 74 % 12.05 C
1588 25-05-2020 12:15:00 16.9 C 74 % 12.24 C
1589 25-05-2020 12:20:00 17.1 C 72 % 12.02 C
1590 25-05-2020 12:25:00 17.2 C 72 % 12.11 C
1591 25-05-2020 12:30:00 17.3 C 72 % 12.21 C
1592 25-05-2020 12:35:00 17.3 C 72 % 12.21 C
1593 25-05-2020 12:40:00 17.3 C 71 % 12 C
1594 25-05-2020 12:45:00 17.1 C 71 % 11.8 C
1595 25-05-2020 12:50:00 17.1 C 72 % 12.02 C
1596 25-05-2020 12:55:00 17.1 C 71 % 11.8 C
1597 25-05-2020 13:00:00 17.2 C 71 % 11.9 C
1598 25-05-2020 13:05:00 17.3 C 70 % 11.78 C
1599 25-05-2020 13:10:00 17.4 C 70 % 11.88 C
1600 25-05-2020 13:15:00 17.5 C 70 % 11.97 C
Sensor: Nr:Datum:Temp:Feuchte:Taupunkt:
Aussen-T/F 1601 25-05-2020 13:20:00 17.7 C 70 % 12.16 C
1602 25-05-2020 13:25:00 17.8 C 69 % 12.04 C
1603 25-05-2020 13:30:00 17.8 C 68 % 11.82 C
1604 25-05-2020 13:35:00 17.7 C 69 % 11.95 C
1605 25-05-2020 13:40:00 17.5 C 68 % 11.53 C
1606 25-05-2020 13:45:00 17.5 C 70 % 11.97 C
1607 25-05-2020 13:50:00 17.6 C 68 % 11.63 C
1608 25-05-2020 13:55:00 17.8 C 69 % 12.04 C
1609 25-05-2020 14:00:00 17.9 C 67 % 11.69 C
1610 25-05-2020 14:05:00 18.2 C 67 % 11.98 C
1611 25-05-2020 14:10:00 18.2 C 64 % 11.28 C
1612 25-05-2020 14:15:00 18.1 C 65 % 11.42 C
1613 25-05-2020 14:20:00 17.9 C 66 % 11.46 C
1614 25-05-2020 14:25:00 17.8 C 66 % 11.37 C
1615 25-05-2020 14:30:00 17.8 C 67 % 11.6 C
1616 25-05-2020 14:35:00 17.9 C 67 % 11.69 C
1617 25-05-2020 14:40:00 18.2 C 66 % 11.75 C
1618 25-05-2020 14:45:00 18.2 C 66 % 11.75 C
1619 25-05-2020 14:50:00 18.2 C 66 % 11.75 C
1620 25-05-2020 14:55:00 18.1 C 66 % 11.65 C
1621 25-05-2020 15:00:00 18.1 C 66 % 11.65 C
1622 25-05-2020 15:05:00 18.2 C 65 % 11.52 C
1623 25-05-2020 15:10:00 18.2 C 65 % 11.52 C
1624 25-05-2020 15:15:00 18.3 C 66 % 11.84 C
1625 25-05-2020 15:20:00 18.4 C 65 % 11.71 C
Sensor: Nr:Datum:Temp:Feuchte:Taupunkt:
Aussen-T/F 1626 25-05-2020 15:25:00 18.6 C 65 % 11.9 C
1627 25-05-2020 15:30:00 18.7 C 63 % 11.52 C
1628 25-05-2020 15:35:00 18.6 C 63 % 11.42 C
1629 25-05-2020 15:40:00 18.4 C 64 % 11.47 C
1630 25-05-2020 15:45:00 18.5 C 64 % 11.57 C
1631 25-05-2020 15:50:00 18.8 C 64 % 11.85 C
1632 25-05-2020 15:55:00 19.1 C 63 % 11.9 C
1633 25-05-2020 16:00:00 19.1 C 62 % 11.65 C
1634 25-05-2020 16:05:00 19.1 C 62 % 11.65 C
1635 25-05-2020 16:10:00 19.3 C 62 % 11.84 C
1636 25-05-2020 16:15:00 19.5 C 63 % 12.27 C
1637 25-05-2020 16:20:00 19.9 C 60 % 11.91 C
1638 25-05-2020 16:25:00 20 C 59 % 11.75 C
1639 25-05-2020 16:30:00 20.1 C 58 % 11.58 C
1640 25-05-2020 16:35:00 20.2 C 58 % 11.68 C
1641 25-05-2020 16:40:00 20.2 C 57 % 11.42 C
1642 25-05-2020 16:45:00 20.2 C 56 % 11.15 C
1643 25-05-2020 16:50:00 19.9 C 58 % 11.4 C
1644 25-05-2020 16:55:00 19.8 C 59 % 11.56 C
1645 25-05-2020 17:00:00 20.1 C 61 % 12.35 C
1646 25-05-2020 17:05:00 20.7 C 58 % 12.15 C
1647 25-05-2020 17:10:00 21.1 C 56 % 11.99 C
1648 25-05-2020 17:15:00 21.2 C 55 % 11.81 C
1649 25-05-2020 17:20:00 20.9 C 56 % 11.8 C
1650 25-05-2020 17:25:00 20.4 C 57 % 11.6 C
Sensor: Nr:Datum:Temp:Feuchte:Taupunkt:
Aussen-T/F 1651 25-05-2020 17:30:00 20.6 C 57 % 11.79 C
1652 25-05-2020 17:35:00 20.6 C 57 % 11.79 C
1653 25-05-2020 17:40:00 20.1 C 59 % 11.84 C
1654 25-05-2020 17:45:00 19.8 C 59 % 11.56 C
1655 25-05-2020 17:50:00 19.8 C 61 % 12.07 C
1656 25-05-2020 17:55:00 20.3 C 59 % 12.03 C
1657 25-05-2020 18:00:00 20.2 C 59 % 11.94 C
1658 25-05-2020 18:05:00 20.3 C 58 % 11.77 C
1659 25-05-2020 18:10:00 20.6 C 58 % 12.05 C
1660 25-05-2020 18:15:00 20.8 C 57 % 11.97 C
1661 25-05-2020 18:20:00 21.1 C 56 % 11.99 C
1662 25-05-2020 18:25:00 21.2 C 54 % 11.53 C
1663 25-05-2020 18:30:00 21.2 C 55 % 11.81 C
1664 25-05-2020 18:35:00 20.8 C 55 % 11.43 C
1665 25-05-2020 18:40:00 20.1 C 56 % 11.06 C
1666 25-05-2020 18:45:00 19.4 C 59 % 11.19 C
1667 25-05-2020 18:50:00 19.4 C 61 % 11.69 C
1668 25-05-2020 18:55:00 19.9 C 59 % 11.66 C
1669 25-05-2020 19:00:00 20.5 C 58 % 11.96 C
1670 25-05-2020 19:05:00 20.8 C 55 % 11.43 C
1671 25-05-2020 19:10:00 20.8 C 53 % 10.88 C
1672 25-05-2020 19:15:00 20.6 C 54 % 10.97 C
1673 25-05-2020 19:20:00 20.3 C 54 % 10.69 C
1674 25-05-2020 19:25:00 20.1 C 54 % 10.51 C
1675 25-05-2020 19:30:00 19.9 C 55 % 10.6 C
Sensor: Nr:Datum:Temp:Feuchte:Taupunkt:
Aussen-T/F 1676 25-05-2020 19:35:00 19.8 C 56 % 10.78 C
1677 25-05-2020 19:40:00 19.8 C 56 % 10.78 C
1678 25-05-2020 19:45:00 19.6 C 56 % 10.59 C
1679 25-05-2020 19:50:00 19.2 C 57 % 10.48 C
1680 25-05-2020 19:55:00 19 C 59 % 10.81 C
1681 25-05-2020 20:00:00 18.9 C 59 % 10.72 C
1682 25-05-2020 20:05:00 18.9 C 58 % 10.46 C
1683 25-05-2020 20:10:00 19 C 58 % 10.56 C
1684 25-05-2020 20:15:00 19.1 C 58 % 10.65 C
1685 25-05-2020 20:20:00 19.1 C 57 % 10.39 C
1686 25-05-2020 20:25:00 19.1 C 58 % 10.65 C
1687 25-05-2020 20:30:00 19.1 C 57 % 10.39 C
1688 25-05-2020 20:35:00 18.9 C 57 % 10.2 C
1689 25-05-2020 20:40:00 18.7 C 58 % 10.28 C
1690 25-05-2020 20:45:00 18.5 C 59 % 10.34 C
1691 25-05-2020 20:50:00 18.3 C 60 % 10.41 C
1692 25-05-2020 20:55:00 18.2 C 59 % 10.06 C
1693 25-05-2020 21:00:00 18.1 C 60 % 10.22 C
1694 25-05-2020 21:05:00 17.8 C 62 % 10.43 C
1695 25-05-2020 21:10:00 17.6 C 60 % 9.75 C
1696 25-05-2020 21:15:00 17.4 C 63 % 10.29 C
1697 25-05-2020 21:20:00 17.1 C 64 % 10.24 C
1698 25-05-2020 21:25:00 16.7 C 65 % 10.09 C
1699 25-05-2020 21:30:00 16.4 C 66 % 10.04 C
1700 25-05-2020 21:35:00 16.1 C 68 % 10.2 C
Sensor: Nr:Datum:Temp:Feuchte:Taupunkt:
Aussen-T/F 1701 25-05-2020 21:40:00 15.7 C 69 % 10.03 C
1702 25-05-2020 21:45:00 15.3 C 70 % 9.87 C
1703 25-05-2020 21:50:00 15.1 C 71 % 9.89 C
1704 25-05-2020 21:55:00 14.8 C 72 % 9.81 C
1705 25-05-2020 22:00:00 14.7 C 73 % 9.92 C
1706 25-05-2020 22:05:00 14.5 C 73 % 9.72 C
1707 25-05-2020 22:10:00 14.3 C 74 % 9.73 C
1708 25-05-2020 22:15:00 14.1 C 75 % 9.74 C
1709 25-05-2020 22:20:00 14.1 C 75 % 9.74 C
1710 25-05-2020 22:25:00 14 C 76 % 9.84 C
1711 25-05-2020 22:30:00 13.9 C 76 % 9.74 C
1712 25-05-2020 22:35:00 13.8 C 76 % 9.65 C
1713 25-05-2020 22:40:00 13.8 C 76 % 9.65 C
1714 25-05-2020 22:45:00 13.7 C 77 % 9.75 C
1715 25-05-2020 22:50:00 13.5 C 78 % 9.74 C
1716 25-05-2020 22:55:00 13.3 C 78 % 9.55 C
1717 25-05-2020 23:00:00 13.1 C 78 % 9.36 C
1718 25-05-2020 23:05:00 12.9 C 79 % 9.35 C
1719 25-05-2020 23:10:00 12.9 C 79 % 9.35 C
1720 25-05-2020 23:15:00 12.8 C 79 % 9.25 C
1721 25-05-2020 23:20:00 12.7 C 80 % 9.34 C
1722 25-05-2020 23:25:00 12.6 C 80 % 9.25 C
1723 25-05-2020 23:30:00 12.5 C 81 % 9.33 C
1724 25-05-2020 23:35:00 12.3 C 81 % 9.14 C
1725 25-05-2020 23:40:00 12.2 C 82 % 9.22 C
Sensor: Nr:Datum:Temp:Feuchte:Taupunkt:
Aussen-T/F 1726 25-05-2020 23:45:00 12.1 C 82 % 9.12 C
1727 25-05-2020 23:50:00 11.9 C 82 % 8.93 C
1728 25-05-2020 23:55:00 11.8 C 83 % 9.01 C
1729 26-05-2020 00:00:00 11.7 C 83 % 8.91 C
1730 26-05-2020 00:05:00 11.6 C 84 % 8.99 C
1731 26-05-2020 00:10:00 11.4 C 84 % 8.8 C
1732 26-05-2020 00:15:00 11.3 C 84 % 8.7 C
1733 26-05-2020 00:20:00 11.2 C 85 % 8.77 C
1734 26-05-2020 00:25:00 11.1 C 85 % 8.68 C
1735 26-05-2020 00:30:00 10.9 C 86 % 8.65 C
1736 26-05-2020 00:35:00 10.8 C 86 % 8.56 C
1737 26-05-2020 00:40:00 10.8 C 86 % 8.56 C
1738 26-05-2020 00:45:00 10.7 C 86 % 8.46 C
1739 26-05-2020 00:50:00 10.6 C 87 % 8.53 C
1740 26-05-2020 00:55:00 10.4 C 87 % 8.33 C
1741 26-05-2020 01:00:00 10.3 C 87 % 8.23 C
1742 26-05-2020 01:05:00 10.3 C 88 % 8.4 C
1743 26-05-2020 01:10:00 10.2 C 88 % 8.3 C
1744 26-05-2020 01:15:00 10.1 C 88 % 8.21 C
1745 26-05-2020 01:20:00 10 C 88 % 8.11 C
1746 26-05-2020 01:25:00 9.9 C 89 % 8.17 C
1747 26-05-2020 01:30:00 9.8 C 89 % 8.08 C
1748 26-05-2020 01:35:00 9.7 C 89 % 7.98 C
1749 26-05-2020 01:40:00 9.6 C 89 % 7.88 C
1750 26-05-2020 01:45:00 9.4 C 89 % 7.68 C
Sensor: Nr:Datum:Temp:Feuchte:Taupunkt:
Aussen-T/F 1751 26-05-2020 01:50:00 9.4 C 90 % 7.85 C
1752 26-05-2020 01:55:00 9.3 C 90 % 7.75 C
1753 26-05-2020 02:00:00 9.2 C 90 % 7.65 C
1754 26-05-2020 02:05:00 9.2 C 90 % 7.65 C
1755 26-05-2020 02:10:00 9 C 90 % 7.45 C
1756 26-05-2020 02:15:00 8.9 C 90 % 7.35 C
1757 26-05-2020 02:20:00 8.8 C 91 % 7.41 C
1758 26-05-2020 02:25:00 8.8 C 91 % 7.41 C
1759 26-05-2020 02:30:00 8.7 C 91 % 7.32 C
1760 26-05-2020 02:35:00 8.6 C 91 % 7.22 C
1761 26-05-2020 02:40:00 8.6 C 92 % 7.38 C
1762 26-05-2020 02:45:00 8.5 C 92 % 7.28 C
1763 26-05-2020 02:50:00 8.4 C 92 % 7.18 C
1764 26-05-2020 02:55:00 8.4 C 92 % 7.18 C
1765 26-05-2020 03:00:00 8.3 C 92 % 7.08 C
1766 26-05-2020 03:05:00 8.3 C 92 % 7.08 C
1767 26-05-2020 03:10:00 8.2 C 92 % 6.98 C
1768 26-05-2020 03:15:00 8.2 C 93 % 7.14 C
1769 26-05-2020 03:20:00 8.1 C 93 % 7.04 C
1770 26-05-2020 03:25:00 8.2 C 93 % 7.14 C
1771 26-05-2020 03:30:00 8.2 C 93 % 7.14 C
1772 26-05-2020 03:35:00 8.1 C 93 % 7.04 C
1773 26-05-2020 03:40:00 8 C 93 % 6.94 C
1774 26-05-2020 03:45:00 8.1 C 93 % 7.04 C
1775 26-05-2020 03:50:00 8 C 93 % 6.94 C
Sensor: Nr:Datum:Temp:Feuchte:Taupunkt:
Aussen-T/F 1776 26-05-2020 03:55:00 7.9 C 93 % 6.84 C
1777 26-05-2020 04:00:00 7.8 C 93 % 6.74 C
1778 26-05-2020 04:05:00 7.8 C 93 % 6.74 C
1779 26-05-2020 04:10:00 7.7 C 94 % 6.8 C
1780 26-05-2020 04:15:00 7.7 C 94 % 6.8 C
1781 26-05-2020 04:20:00 7.7 C 94 % 6.8 C
1782 26-05-2020 04:25:00 7.7 C 94 % 6.8 C
1783 26-05-2020 04:30:00 7.8 C 94 % 6.9 C
1784 26-05-2020 04:35:00 7.8 C 94 % 6.9 C
1785 26-05-2020 04:40:00 7.7 C 94 % 6.8 C
1786 26-05-2020 04:45:00 7.6 C 94 % 6.7 C
1787 26-05-2020 04:50:00 7.6 C 94 % 6.7 C
1788 26-05-2020 04:55:00 7.7 C 94 % 6.8 C
1789 26-05-2020 05:00:00 7.6 C 94 % 6.7 C
1790 26-05-2020 05:05:00 7.5 C 94 % 6.6 C
1791 26-05-2020 05:10:00 7.4 C 94 % 6.5 C
1792 26-05-2020 05:15:00 7.4 C 94 % 6.5 C
1793 26-05-2020 05:20:00 7.3 C 94 % 6.4 C
1794 26-05-2020 05:25:00 7.3 C 94 % 6.4 C
1795 26-05-2020 05:30:00 7.3 C 94 % 6.4 C
1796 26-05-2020 05:35:00 7.3 C 94 % 6.4 C
1797 26-05-2020 05:40:00 7.3 C 95 % 6.55 C
1798 26-05-2020 05:45:00 7.3 C 95 % 6.55 C
1799 26-05-2020 05:50:00 7.2 C 95 % 6.45 C
1800 26-05-2020 05:55:00 7.2 C 95 % 6.45 C
Sensor: Nr:Datum:Temp:Feuchte:Taupunkt:
Aussen-T/F 1801 26-05-2020 06:00:00 7.3 C 95 % 6.55 C
1802 26-05-2020 06:05:00 7.3 C 95 % 6.55 C
1803 26-05-2020 06:10:00 7.3 C 95 % 6.55 C
1804 26-05-2020 06:15:00 7.3 C 95 % 6.55 C
1805 26-05-2020 06:20:00 7.3 C 95 % 6.55 C
1806 26-05-2020 06:25:00 7.3 C 95 % 6.55 C
1807 26-05-2020 06:30:00 7.3 C 95 % 6.55 C
1808 26-05-2020 06:35:00 7.3 C 95 % 6.55 C
1809 26-05-2020 06:40:00 7.3 C 95 % 6.55 C
1810 26-05-2020 06:45:00 7.3 C 95 % 6.55 C
1811 26-05-2020 06:50:00 7.3 C 95 % 6.55 C
1812 26-05-2020 06:55:00 7.3 C 95 % 6.55 C
1813 26-05-2020 07:00:00 7.4 C 95 % 6.65 C
1814 26-05-2020 07:05:00 7.4 C 95 % 6.65 C
1815 26-05-2020 07:10:00 7.5 C 95 % 6.75 C
1816 26-05-2020 07:15:00 7.6 C 95 % 6.85 C
1817 26-05-2020 07:20:00 7.6 C 95 % 6.85 C
1818 26-05-2020 07:25:00 7.7 C 95 % 6.95 C
1819 26-05-2020 07:30:00 7.7 C 96 % 7.1 C
1820 26-05-2020 07:35:00 7.8 C 96 % 7.2 C
1821 26-05-2020 07:40:00 7.9 C 96 % 7.3 C
1822 26-05-2020 07:45:00 8 C 96 % 7.4 C
1823 26-05-2020 07:50:00 8.1 C 96 % 7.5 C
1824 26-05-2020 07:55:00 8.2 C 96 % 7.6 C
1825 26-05-2020 08:00:00 8.2 C 96 % 7.6 C
Sensor: Nr:Datum:Temp:Feuchte:Taupunkt:
Aussen-T/F 1826 26-05-2020 08:05:00 8.3 C 96 % 7.7 C
1827 26-05-2020 08:10:00 8.4 C 96 % 7.8 C
1828 26-05-2020 08:15:00 8.5 C 96 % 7.9 C
1829 26-05-2020 08:20:00 8.6 C 96 % 8 C
1830 26-05-2020 08:25:00 8.7 C 96 % 8.1 C
1831 26-05-2020 08:30:00 8.8 C 96 % 8.2 C
1832 26-05-2020 08:35:00 9 C 96 % 8.4 C
1833 26-05-2020 08:40:00 9.1 C 96 % 8.5 C
1834 26-05-2020 08:45:00 9.3 C 96 % 8.7 C
1835 26-05-2020 08:50:00 9.4 C 96 % 8.8 C
1836 26-05-2020 08:55:00 9.6 C 96 % 8.99 C
1837 26-05-2020 09:00:00 9.7 C 96 % 9.09 C
1838 26-05-2020 09:05:00 9.8 C 96 % 9.19 C
1839 26-05-2020 09:10:00 9.9 C 96 % 9.29 C
1840 26-05-2020 09:15:00 10.1 C 96 % 9.49 C
1841 26-05-2020 09:20:00 10.3 C 96 % 9.69 C
1842 26-05-2020 09:25:00 10.4 C 96 % 9.79 C
1843 26-05-2020 09:30:00 10.5 C 96 % 9.89 C
1844 26-05-2020 09:35:00 10.6 C 96 % 9.99 C
1845 26-05-2020 09:40:00 10.7 C 96 % 10.09 C
1846 26-05-2020 09:45:00 10.8 C 95 % 10.03 C
1847 26-05-2020 09:50:00 11 C 95 % 10.23 C
1848 26-05-2020 09:55:00 11.2 C 94 % 10.27 C
1849 26-05-2020 10:00:00 11.6 C 94 % 10.67 C
1850 26-05-2020 10:05:00 12 C 93 % 10.9 C
Sensor: Nr:Datum:Temp:Feuchte:Taupunkt:
Aussen-T/F 1851 26-05-2020 10:10:00 12.2 C 91 % 10.78 C
1852 26-05-2020 10:15:00 12.7 C 89 % 10.94 C
1853 26-05-2020 10:20:00 13.3 C 86 % 11.01 C
1854 26-05-2020 10:25:00 13.8 C 83 % 10.97 C
1855 26-05-2020 10:30:00 14.3 C 80 % 10.9 C
1856 26-05-2020 10:35:00 14.9 C 75 % 10.51 C
1857 26-05-2020 10:40:00 15.4 C 70 % 9.96 C
1858 26-05-2020 10:45:00 15.7 C 68 % 9.82 C
1859 26-05-2020 10:50:00 15.8 C 69 % 10.13 C
1860 26-05-2020 10:55:00 15.9 C 68 % 10.01 C
1861 26-05-2020 11:00:00 16 C 68 % 10.1 C
1862 26-05-2020 11:05:00 16.3 C 67 % 10.17 C
1863 26-05-2020 11:10:00 16.4 C 66 % 10.04 C
1864 26-05-2020 11:15:00 16.4 C 67 % 10.26 C
1865 26-05-2020 11:20:00 16.6 C 66 % 10.23 C
1866 26-05-2020 11:25:00 16.8 C 62 % 9.49 C
1867 26-05-2020 11:30:00 17 C 62 % 9.67 C
1868 26-05-2020 11:35:00 17.2 C 65 % 10.57 C
1869 26-05-2020 11:40:00 17.3 C 61 % 9.71 C
1870 26-05-2020 11:45:00 17.3 C 59 % 9.22 C
1871 26-05-2020 11:50:00 17.3 C 62 % 9.96 C
1872 26-05-2020 11:55:00 17.4 C 60 % 9.56 C
1873 26-05-2020 12:00:00 17.6 C 60 % 9.75 C
1874 26-05-2020 12:05:00 17.7 C 59 % 9.59 C
1875 26-05-2020 12:10:00 17.8 C 57 % 9.18 C
Sensor: Nr:Datum:Temp:Feuchte:Taupunkt:
Aussen-T/F 1876 26-05-2020 12:15:00 17.8 C 59 % 9.69 C
1877 26-05-2020 12:20:00 17.8 C 57 % 9.18 C
1878 26-05-2020 12:25:00 18.1 C 55 % 8.93 C
1879 26-05-2020 12:30:00 18.3 C 54 % 8.84 C
1880 26-05-2020 12:35:00 18.2 C 54 % 8.75 C
1881 26-05-2020 12:40:00 18.3 C 54 % 8.84 C
1882 26-05-2020 12:45:00 18.3 C 55 % 9.11 C
1883 26-05-2020 12:50:00 18.4 C 54 % 8.93 C
1884 26-05-2020 12:55:00 18.3 C 53 % 8.56 C
1885 26-05-2020 13:00:00 18.4 C 55 % 9.2 C
1886 26-05-2020 13:05:00 18.5 C 55 % 9.3 C
1887 26-05-2020 13:10:00 18.6 C 54 % 9.12 C
1888 26-05-2020 13:15:00 18.9 C 53 % 9.12 C
1889 26-05-2020 13:20:00 19 C 52 % 8.93 C
1890 26-05-2020 13:25:00 18.9 C 51 % 8.55 C
1891 26-05-2020 13:30:00 18.9 C 51 % 8.55 C
1892 26-05-2020 13:35:00 18.9 C 51 % 8.55 C
1893 26-05-2020 13:40:00 19.1 C 52 % 9.02 C
1894 26-05-2020 13:45:00 19.2 C 52 % 9.11 C
1895 26-05-2020 13:50:00 19.2 C 50 % 8.53 C
1896 26-05-2020 13:55:00 19.1 C 50 % 8.44 C
1897 26-05-2020 14:00:00 19.2 C 51 % 8.83 C
1898 26-05-2020 14:05:00 19.3 C 50 % 8.63 C
1899 26-05-2020 14:10:00 19.4 C 49 % 8.42 C
1900 26-05-2020 14:15:00 19.3 C 50 % 8.63 C
Sensor: Nr:Datum:Temp:Feuchte:Taupunkt:
Aussen-T/F 1901 26-05-2020 14:20:00 19.3 C 51 % 8.92 C
1902 26-05-2020 14:25:00 19.5 C 51 % 9.1 C
1903 26-05-2020 14:30:00 19.8 C 51 % 9.38 C
1904 26-05-2020 14:35:00 20.1 C 50 % 9.36 C
1905 26-05-2020 14:40:00 20.3 C 50 % 9.54 C
1906 26-05-2020 14:45:00 20.5 C 49 % 9.43 C
1907 26-05-2020 14:50:00 20.6 C 50 % 9.82 C
1908 26-05-2020 14:55:00 20.8 C 48 % 9.4 C
1909 26-05-2020 15:00:00 20.8 C 47 % 9.08 C
1910 26-05-2020 15:05:00 20.8 C 49 % 9.7 C
1911 26-05-2020 15:10:00 21 C 47 % 9.27 C
1912 26-05-2020 15:15:00 21.2 C 47 % 9.45 C
1913 26-05-2020 15:20:00 21 C 48 % 9.58 C
1914 26-05-2020 15:25:00 21.2 C 48 % 9.76 C
1915 26-05-2020 15:30:00 21.6 C 46 % 9.49 C
1916 26-05-2020 15:35:00 21.8 C 46 % 9.67 C
1917 26-05-2020 15:40:00 22.1 C 45 % 9.62 C
1918 26-05-2020 15:45:00 22.1 C 46 % 9.95 C
1919 26-05-2020 15:50:00 22.2 C 45 % 9.71 C
1920 26-05-2020 15:55:00 21.9 C 45 % 9.44 C
1921 26-05-2020 16:00:00 21.7 C 46 % 9.58 C
1922 26-05-2020 16:05:00 21.8 C 46 % 9.67 C
1923 26-05-2020 16:10:00 21.7 C 46 % 9.58 C
1924 26-05-2020 16:15:00 21.9 C 46 % 9.77 C
1925 26-05-2020 16:20:00 22.3 C 46 % 10.13 C
Sensor: Nr:Datum:Temp:Feuchte:Taupunkt:
Aussen-T/F 1926 26-05-2020 16:25:00 22.6 C 43 % 9.4 C
1927 26-05-2020 16:30:00 22.8 C 44 % 9.92 C
1928 26-05-2020 16:35:00 22.7 C 45 % 10.16 C
1929 26-05-2020 16:40:00 22.5 C 46 % 10.31 C
1930 26-05-2020 16:45:00 22.2 C 46 % 10.04 C
1931 26-05-2020 16:50:00 21.9 C 49 % 10.71 C
1932 26-05-2020 16:55:00 22.1 C 47 % 10.27 C
1933 26-05-2020 17:00:00 22.2 C 46 % 10.04 C
1934 26-05-2020 17:05:00 22 C 46 % 9.86 C
1935 26-05-2020 17:10:00 22.2 C 45 % 9.71 C
1936 26-05-2020 17:15:00 22.5 C 46 % 10.31 C
1937 26-05-2020 17:20:00 22.6 C 46 % 10.4 C
1938 26-05-2020 17:25:00 22.4 C 45 % 9.89 C
1939 26-05-2020 17:30:00 21.9 C 48 % 10.4 C
1940 26-05-2020 17:35:00 22 C 49 % 10.8 C
1941 26-05-2020 17:40:00 22.6 C 47 % 10.72 C
1942 26-05-2020 17:45:00 23.2 C 45 % 10.62 C
1943 26-05-2020 17:50:00 23.4 C 44 % 10.46 C
1944 26-05-2020 17:55:00 23.6 C 45 % 10.98 C
1945 26-05-2020 18:00:00 23.6 C 45 % 10.98 C
1946 26-05-2020 18:05:00 23.1 C 44 % 10.19 C
1947 26-05-2020 18:10:00 23.1 C 45 % 10.53 C
1948 26-05-2020 18:15:00 22.8 C 45 % 10.25 C
1949 26-05-2020 18:20:00 22.4 C 46 % 10.22 C
1950 26-05-2020 18:25:00 22.4 C 48 % 10.86 C
Sensor: Nr:Datum:Temp:Feuchte:Taupunkt:
Aussen-T/F 1951 26-05-2020 18:30:00 22.8 C 47 % 10.91 C
1952 26-05-2020 18:35:00 23.2 C 44 % 10.28 C
1953 26-05-2020 18:40:00 23.3 C 44 % 10.37 C
1954 26-05-2020 18:45:00 23.2 C 45 % 10.62 C
1955 26-05-2020 18:50:00 23.1 C 44 % 10.19 C
1956 26-05-2020 18:55:00 22.9 C 45 % 10.34 C
1957 26-05-2020 19:00:00 22.7 C 44 % 9.83 C
1958 26-05-2020 19:05:00 22.3 C 45 % 9.8 C
1959 26-05-2020 19:10:00 22.3 C 47 % 10.45 C
1960 26-05-2020 19:15:00 22.3 C 45 % 9.8 C
1961 26-05-2020 19:20:00 22.2 C 46 % 10.04 C
1962 26-05-2020 19:25:00 21.9 C 46 % 9.77 C
1963 26-05-2020 19:30:00 21.7 C 46 % 9.58 C
1964 26-05-2020 19:35:00 21.6 C 46 % 9.49 C
1965 26-05-2020 19:40:00 21.3 C 47 % 9.54 C
1966 26-05-2020 19:45:00 21.1 C 48 % 9.67 C
1967 26-05-2020 19:50:00 21.1 C 49 % 9.98 C
1968 26-05-2020 19:55:00 21.2 C 48 % 9.76 C
1969 26-05-2020 20:00:00 21 C 50 % 10.19 C
1970 26-05-2020 20:05:00 21 C 48 % 9.58 C
1971 26-05-2020 20:10:00 20.7 C 49 % 9.61 C
1972 26-05-2020 20:15:00 20.6 C 50 % 9.82 C
1973 26-05-2020 20:20:00 20.4 C 49 % 9.34 C
1974 26-05-2020 20:25:00 20.3 C 50 % 9.54 C
1975 26-05-2020 20:30:00 20.2 C 53 % 10.32 C
Sensor: Nr:Datum:Temp:Feuchte:Taupunkt:
Aussen-T/F 1976 26-05-2020 20:35:00 20 C 55 % 10.69 C
1977 26-05-2020 20:40:00 19.8 C 56 % 10.78 C
1978 26-05-2020 20:45:00 19.6 C 57 % 10.86 C
1979 26-05-2020 20:50:00 19.2 C 59 % 11 C
1980 26-05-2020 20:55:00 18.8 C 59 % 10.63 C
1981 26-05-2020 21:00:00 18.3 C 61 % 10.66 C
1982 26-05-2020 21:05:00 17.9 C 62 % 10.52 C
1983 26-05-2020 21:10:00 17.5 C 63 % 10.38 C
1984 26-05-2020 21:15:00 17.2 C 63 % 10.1 C
1985 26-05-2020 21:20:00 16.8 C 64 % 9.96 C
1986 26-05-2020 21:25:00 16.6 C 64 % 9.77 C
1987 26-05-2020 21:30:00 16.2 C 64 % 9.39 C
1988 26-05-2020 21:35:00 15.9 C 64 % 9.11 C
1989 26-05-2020 21:40:00 15.7 C 65 % 9.15 C
1990 26-05-2020 21:45:00 15.6 C 65 % 9.05 C
1991 26-05-2020 21:50:00 15.3 C 65 % 8.77 C
1992 26-05-2020 21:55:00 15.2 C 66 % 8.9 C
1993 26-05-2020 22:00:00 15.1 C 67 % 9.02 C
1994 26-05-2020 22:05:00 14.9 C 67 % 8.83 C
1995 26-05-2020 22:10:00 14.8 C 68 % 8.96 C
1996 26-05-2020 22:15:00 14.8 C 69 % 9.17 C
1997 26-05-2020 22:20:00 14.7 C 70 % 9.29 C
1998 26-05-2020 22:25:00 14.7 C 70 % 9.29 C
1999 26-05-2020 22:30:00 14.7 C 72 % 9.71 C
2000 26-05-2020 22:35:00 14.6 C 72 % 9.61 C
Sensor: Nr:Datum:Temp:Feuchte:Taupunkt:
Aussen-T/F 2001 26-05-2020 22:40:00 14.5 C 72 % 9.52 C
2002 26-05-2020 22:45:00 14.3 C 71 % 9.12 C
2003 26-05-2020 22:50:00 14.2 C 71 % 9.02 C
2004 26-05-2020 22:55:00 14.1 C 73 % 9.34 C
2005 26-05-2020 23:00:00 13.9 C 74 % 9.35 C
2006 26-05-2020 23:05:00 13.8 C 74 % 9.25 C
2007 26-05-2020 23:10:00 13.6 C 74 % 9.06 C
2008 26-05-2020 23:15:00 13.4 C 74 % 8.87 C
2009 26-05-2020 23:20:00 13.2 C 75 % 8.87 C
2010 26-05-2020 23:25:00 13.1 C 76 % 8.97 C
2011 26-05-2020 23:30:00 12.9 C 76 % 8.78 C
2012 26-05-2020 23:35:00 12.8 C 77 % 8.87 C
2013 26-05-2020 23:40:00 12.7 C 77 % 8.78 C
2014 26-05-2020 23:45:00 12.6 C 78 % 8.87 C
2015 26-05-2020 23:50:00 12.4 C 79 % 8.86 C
2016 26-05-2020 23:55:00 12.3 C 79 % 8.77 C

Legende:
   Min
   Max


Maximal/Minimal-Werte vom 20.05.2020 - 26.05.2020

Sensor Min Max Avg
Temp
(Aussen-T/F)
7.2 °C
26-05-2020  05:50:00
29.2 °C
21-05-2020  17:15:00
16.37 °C
Feuchte
(Aussen-T/F)
36 %
21-05-2020  18:15:00
97 %
23-05-2020  07:45:00
75.06 %
Taupunkt
(Aussen-T/F)
6.4 C
26-05-2020  05:20:00
18.3 C
22-05-2020  13:30:00
11.49 C

Die Daten stammen von einer Davis Vantage Pro 2 Wetter-Station und werden unter Linux mit der Software wview2wettercgi und aufbereitet. Alle Angaben erfolgen ohne Gewähr für ihre Vollständigkeit oder Richtigkeit.
Kontakt: Rainer Krienke krienke@uni-koblenz.de . Meine Webseiten an der Uni Koblenz oder privat.
Version: $Revision: 0.78 $